<?xml version="1.0" encoding="UTF-8" standalone="no" ?>
<gpx xmlns="http://www.topografix.com/GPX/1/1" xmlns:xsi="http://www.w3.org/2001/XMLSchema-instance" xsi:schemaLocation="http://www.topografix.com/GPX/1/1 http://www.topografix.com/GPX/1/1/gpx.xsd" version="1.1" creator="VisuGPX - https://www.visugpx.com">
  <metadata>
    <name>1 - St Laurent d'Agny</name>
    <desc><![CDATA[ 
]]></desc>
  </metadata>
  <trk>
    <name><![CDATA[14-JAN-20 16:12:30]]></name>
    <extensions>
      <line xmlns="http://www.topografix.com/GPX/gpx_style/0/2">
        <color>0000FF</color>
        <width>4</width>
      </line>
    </extensions>
    <trkseg>
      <trkpt lat="45.64085" lon="4.69135">
        <ele>390</ele>
        <time>2020-01-14T12:51:29Z</time>
      </trkpt>
      <trkpt lat="45.64085" lon="4.69134">
        <ele>390</ele>
        <time>2020-01-14T12:51:31Z</time>
      </trkpt>
      <trkpt lat="45.64085" lon="4.69133">
        <ele>390</ele>
        <time>2020-01-14T12:51:33Z</time>
      </trkpt>
      <trkpt lat="45.64085" lon="4.69133">
        <ele>390</ele>
        <time>2020-01-14T12:51:36Z</time>
      </trkpt>
      <trkpt lat="45.64084" lon="4.69132">
        <ele>390</ele>
        <time>2020-01-14T12:51:39Z</time>
      </trkpt>
      <trkpt lat="45.64084" lon="4.69132">
        <ele>390</ele>
        <time>2020-01-14T12:51:41Z</time>
      </trkpt>
      <trkpt lat="45.64084" lon="4.69133">
        <ele>390</ele>
        <time>2020-01-14T12:51:42Z</time>
      </trkpt>
      <trkpt lat="45.64084" lon="4.69133">
        <ele>390</ele>
        <time>2020-01-14T12:51:45Z</time>
      </trkpt>
      <trkpt lat="45.64084" lon="4.69134">
        <ele>390</ele>
        <time>2020-01-14T12:51:49Z</time>
      </trkpt>
      <trkpt lat="45.64085" lon="4.69133">
        <ele>390</ele>
        <time>2020-01-14T12:51:52Z</time>
      </trkpt>
      <trkpt lat="45.64085" lon="4.69132">
        <ele>390</ele>
        <time>2020-01-14T12:51:53Z</time>
      </trkpt>
      <trkpt lat="45.64086" lon="4.69133">
        <ele>390</ele>
        <time>2020-01-14T12:51:58Z</time>
      </trkpt>
      <trkpt lat="45.64086" lon="4.69133">
        <ele>390</ele>
        <time>2020-01-14T12:51:59Z</time>
      </trkpt>
      <trkpt lat="45.64086" lon="4.69134">
        <ele>390</ele>
        <time>2020-01-14T12:52:02Z</time>
      </trkpt>
      <trkpt lat="45.64086" lon="4.69135">
        <ele>390</ele>
        <time>2020-01-14T12:52:03Z</time>
      </trkpt>
      <trkpt lat="45.64086" lon="4.69137">
        <ele>390</ele>
        <time>2020-01-14T12:52:07Z</time>
      </trkpt>
      <trkpt lat="45.64084" lon="4.69137">
        <ele>390</ele>
        <time>2020-01-14T12:52:16Z</time>
      </trkpt>
      <trkpt lat="45.64087" lon="4.69138">
        <ele>390</ele>
        <time>2020-01-14T12:52:24Z</time>
      </trkpt>
      <trkpt lat="45.6409" lon="4.69138">
        <ele>390</ele>
        <time>2020-01-14T12:52:33Z</time>
      </trkpt>
      <trkpt lat="45.6409" lon="4.69138">
        <ele>390</ele>
        <time>2020-01-14T12:52:53Z</time>
      </trkpt>
      <trkpt lat="45.64092" lon="4.69136">
        <ele>390</ele>
        <time>2020-01-14T12:53:23Z</time>
      </trkpt>
      <trkpt lat="45.64091" lon="4.69134">
        <ele>390</ele>
        <time>2020-01-14T12:53:46Z</time>
      </trkpt>
      <trkpt lat="45.6409" lon="4.69134">
        <ele>390</ele>
        <time>2020-01-14T12:54:08Z</time>
      </trkpt>
      <trkpt lat="45.64088" lon="4.69135">
        <ele>390</ele>
        <time>2020-01-14T12:54:24Z</time>
      </trkpt>
      <trkpt lat="45.64089" lon="4.69135">
        <ele>390</ele>
        <time>2020-01-14T12:54:26Z</time>
      </trkpt>
      <trkpt lat="45.64088" lon="4.69135">
        <ele>390</ele>
        <time>2020-01-14T12:54:51Z</time>
      </trkpt>
      <trkpt lat="45.64087" lon="4.69135">
        <ele>390</ele>
        <time>2020-01-14T12:55:11Z</time>
      </trkpt>
      <trkpt lat="45.64087" lon="4.69134">
        <ele>390</ele>
        <time>2020-01-14T12:55:30Z</time>
      </trkpt>
      <trkpt lat="45.64088" lon="4.69134">
        <ele>390</ele>
        <time>2020-01-14T12:55:46Z</time>
      </trkpt>
      <trkpt lat="45.64088" lon="4.69134">
        <ele>390</ele>
        <time>2020-01-14T12:56:10Z</time>
      </trkpt>
      <trkpt lat="45.64087" lon="4.69135">
        <ele>390</ele>
        <time>2020-01-14T12:56:41Z</time>
      </trkpt>
      <trkpt lat="45.64083" lon="4.69133">
        <ele>390</ele>
        <time>2020-01-14T12:57:02Z</time>
      </trkpt>
      <trkpt lat="45.64081" lon="4.69134">
        <ele>390.1</ele>
        <time>2020-01-14T12:57:16Z</time>
      </trkpt>
      <trkpt lat="45.64081" lon="4.69134">
        <ele>390.1</ele>
        <time>2020-01-14T12:57:33Z</time>
      </trkpt>
      <trkpt lat="45.64081" lon="4.69134">
        <ele>390.1</ele>
        <time>2020-01-14T12:57:46Z</time>
      </trkpt>
      <trkpt lat="45.6408" lon="4.69132">
        <ele>390.1</ele>
        <time>2020-01-14T12:57:59Z</time>
      </trkpt>
      <trkpt lat="45.64076" lon="4.69131">
        <ele>390.3</ele>
        <time>2020-01-14T12:58:12Z</time>
      </trkpt>
      <trkpt lat="45.64077" lon="4.69132">
        <ele>390.2</ele>
        <time>2020-01-14T12:58:27Z</time>
      </trkpt>
      <trkpt lat="45.64081" lon="4.69136">
        <ele>390.1</ele>
        <time>2020-01-14T12:58:46Z</time>
      </trkpt>
      <trkpt lat="45.64081" lon="4.69136">
        <ele>390.1</ele>
        <time>2020-01-14T12:59:07Z</time>
      </trkpt>
      <trkpt lat="45.6408" lon="4.69135">
        <ele>390.1</ele>
        <time>2020-01-14T12:59:23Z</time>
      </trkpt>
      <trkpt lat="45.64078" lon="4.69134">
        <ele>390.2</ele>
        <time>2020-01-14T12:59:37Z</time>
      </trkpt>
      <trkpt lat="45.64079" lon="4.69133">
        <ele>390.2</ele>
        <time>2020-01-14T12:59:55Z</time>
      </trkpt>
      <trkpt lat="45.64079" lon="4.69133">
        <ele>390.2</ele>
        <time>2020-01-14T13:00:18Z</time>
      </trkpt>
      <trkpt lat="45.64078" lon="4.69132">
        <ele>390.2</ele>
        <time>2020-01-14T13:00:46Z</time>
      </trkpt>
      <trkpt lat="45.64078" lon="4.69132">
        <ele>390.2</ele>
        <time>2020-01-14T13:01:10Z</time>
      </trkpt>
      <trkpt lat="45.64078" lon="4.69131">
        <ele>390.2</ele>
        <time>2020-01-14T13:01:37Z</time>
      </trkpt>
      <trkpt lat="45.64078" lon="4.69132">
        <ele>390.2</ele>
        <time>2020-01-14T13:02:07Z</time>
      </trkpt>
      <trkpt lat="45.64078" lon="4.69132">
        <ele>390.2</ele>
        <time>2020-01-14T13:02:36Z</time>
      </trkpt>
      <trkpt lat="45.64078" lon="4.69131">
        <ele>390.2</ele>
        <time>2020-01-14T13:03:07Z</time>
      </trkpt>
      <trkpt lat="45.64078" lon="4.69131">
        <ele>390.2</ele>
        <time>2020-01-14T13:03:26Z</time>
      </trkpt>
      <trkpt lat="45.64078" lon="4.69133">
        <ele>390.2</ele>
        <time>2020-01-14T13:03:47Z</time>
      </trkpt>
      <trkpt lat="45.64079" lon="4.69134">
        <ele>390.2</ele>
        <time>2020-01-14T13:04:04Z</time>
      </trkpt>
      <trkpt lat="45.64085" lon="4.69137">
        <ele>390</ele>
        <time>2020-01-14T13:04:17Z</time>
      </trkpt>
      <trkpt lat="45.64089" lon="4.69141">
        <ele>390.1</ele>
        <time>2020-01-14T13:04:23Z</time>
      </trkpt>
      <trkpt lat="45.64093" lon="4.69143">
        <ele>390.1</ele>
        <time>2020-01-14T13:04:26Z</time>
      </trkpt>
      <trkpt lat="45.641" lon="4.69147">
        <ele>390.3</ele>
        <time>2020-01-14T13:04:40Z</time>
      </trkpt>
      <trkpt lat="45.641" lon="4.69147">
        <ele>390.3</ele>
        <time>2020-01-14T13:04:58Z</time>
      </trkpt>
      <trkpt lat="45.641" lon="4.69147">
        <ele>390.3</ele>
        <time>2020-01-14T13:05:17Z</time>
      </trkpt>
      <trkpt lat="45.641" lon="4.69147">
        <ele>390.3</ele>
        <time>2020-01-14T13:05:37Z</time>
      </trkpt>
      <trkpt lat="45.64107" lon="4.69152">
        <ele>390.5</ele>
        <time>2020-01-14T13:05:48Z</time>
      </trkpt>
      <trkpt lat="45.64118" lon="4.69165">
        <ele>390.9</ele>
        <time>2020-01-14T13:06:04Z</time>
      </trkpt>
      <trkpt lat="45.6413" lon="4.69177">
        <ele>391.4</ele>
        <time>2020-01-14T13:06:19Z</time>
      </trkpt>
      <trkpt lat="45.64144" lon="4.69187">
        <ele>391.9</ele>
        <time>2020-01-14T13:06:34Z</time>
      </trkpt>
      <trkpt lat="45.6416" lon="4.69199">
        <ele>392.8</ele>
        <time>2020-01-14T13:06:51Z</time>
      </trkpt>
      <trkpt lat="45.64172" lon="4.69209">
        <ele>393.1</ele>
        <time>2020-01-14T13:07:07Z</time>
      </trkpt>
      <trkpt lat="45.64188" lon="4.6921">
        <ele>393.4</ele>
        <time>2020-01-14T13:07:21Z</time>
      </trkpt>
      <trkpt lat="45.64207" lon="4.69214">
        <ele>393.7</ele>
        <time>2020-01-14T13:07:37Z</time>
      </trkpt>
      <trkpt lat="45.64223" lon="4.69214">
        <ele>393.7</ele>
        <time>2020-01-14T13:07:49Z</time>
      </trkpt>
      <trkpt lat="45.64236" lon="4.69219">
        <ele>394.4</ele>
        <time>2020-01-14T13:08:02Z</time>
      </trkpt>
      <trkpt lat="45.64241" lon="4.69218">
        <ele>394.5</ele>
        <time>2020-01-14T13:08:15Z</time>
      </trkpt>
      <trkpt lat="45.64244" lon="4.69213">
        <ele>394.5</ele>
        <time>2020-01-14T13:08:20Z</time>
      </trkpt>
      <trkpt lat="45.64245" lon="4.69209">
        <ele>394.3</ele>
        <time>2020-01-14T13:08:22Z</time>
      </trkpt>
      <trkpt lat="45.64253" lon="4.69206">
        <ele>394.6</ele>
        <time>2020-01-14T13:08:32Z</time>
      </trkpt>
      <trkpt lat="45.64265" lon="4.69212">
        <ele>395.4</ele>
        <time>2020-01-14T13:08:44Z</time>
      </trkpt>
      <trkpt lat="45.64274" lon="4.69216">
        <ele>395.8</ele>
        <time>2020-01-14T13:08:54Z</time>
      </trkpt>
      <trkpt lat="45.64277" lon="4.69218">
        <ele>396</ele>
        <time>2020-01-14T13:08:57Z</time>
      </trkpt>
      <trkpt lat="45.6429" lon="4.69226">
        <ele>397.5</ele>
        <time>2020-01-14T13:09:11Z</time>
      </trkpt>
      <trkpt lat="45.64303" lon="4.69238">
        <ele>398.8</ele>
        <time>2020-01-14T13:09:27Z</time>
      </trkpt>
      <trkpt lat="45.64304" lon="4.69239">
        <ele>398.9</ele>
        <time>2020-01-14T13:09:29Z</time>
      </trkpt>
      <trkpt lat="45.64305" lon="4.69241">
        <ele>399</ele>
        <time>2020-01-14T13:09:31Z</time>
      </trkpt>
      <trkpt lat="45.6431" lon="4.69245">
        <ele>399.1</ele>
        <time>2020-01-14T13:09:36Z</time>
      </trkpt>
      <trkpt lat="45.64321" lon="4.69259">
        <ele>399.9</ele>
        <time>2020-01-14T13:09:51Z</time>
      </trkpt>
      <trkpt lat="45.64332" lon="4.69273">
        <ele>400.8</ele>
        <time>2020-01-14T13:10:07Z</time>
      </trkpt>
      <trkpt lat="45.6434" lon="4.69287">
        <ele>401.2</ele>
        <time>2020-01-14T13:10:20Z</time>
      </trkpt>
      <trkpt lat="45.6435" lon="4.69306">
        <ele>401.6</ele>
        <time>2020-01-14T13:10:35Z</time>
      </trkpt>
      <trkpt lat="45.64353" lon="4.69311">
        <ele>401.8</ele>
        <time>2020-01-14T13:10:39Z</time>
      </trkpt>
      <trkpt lat="45.64355" lon="4.69317">
        <ele>401.9</ele>
        <time>2020-01-14T13:10:44Z</time>
      </trkpt>
      <trkpt lat="45.64363" lon="4.69335">
        <ele>402.1</ele>
        <time>2020-01-14T13:10:58Z</time>
      </trkpt>
      <trkpt lat="45.64373" lon="4.69356">
        <ele>402.4</ele>
        <time>2020-01-14T13:11:15Z</time>
      </trkpt>
      <trkpt lat="45.64383" lon="4.69374">
        <ele>402.4</ele>
        <time>2020-01-14T13:11:29Z</time>
      </trkpt>
      <trkpt lat="45.64391" lon="4.6939">
        <ele>402.1</ele>
        <time>2020-01-14T13:11:43Z</time>
      </trkpt>
      <trkpt lat="45.64393" lon="4.69393">
        <ele>402.1</ele>
        <time>2020-01-14T13:11:46Z</time>
      </trkpt>
      <trkpt lat="45.64395" lon="4.69396">
        <ele>402.2</ele>
        <time>2020-01-14T13:11:48Z</time>
      </trkpt>
      <trkpt lat="45.64404" lon="4.69413">
        <ele>402.5</ele>
        <time>2020-01-14T13:12:02Z</time>
      </trkpt>
      <trkpt lat="45.64412" lon="4.69425">
        <ele>402.2</ele>
        <time>2020-01-14T13:12:16Z</time>
      </trkpt>
      <trkpt lat="45.64424" lon="4.69436">
        <ele>401.8</ele>
        <time>2020-01-14T13:12:29Z</time>
      </trkpt>
      <trkpt lat="45.64425" lon="4.69437">
        <ele>401.8</ele>
        <time>2020-01-14T13:12:30Z</time>
      </trkpt>
      <trkpt lat="45.64428" lon="4.6944">
        <ele>401.7</ele>
        <time>2020-01-14T13:12:33Z</time>
      </trkpt>
      <trkpt lat="45.64443" lon="4.69454">
        <ele>401.6</ele>
        <time>2020-01-14T13:12:48Z</time>
      </trkpt>
      <trkpt lat="45.64448" lon="4.69459">
        <ele>401.5</ele>
        <time>2020-01-14T13:12:53Z</time>
      </trkpt>
      <trkpt lat="45.64458" lon="4.69472">
        <ele>401</ele>
        <time>2020-01-14T13:13:04Z</time>
      </trkpt>
      <trkpt lat="45.6447" lon="4.69485">
        <ele>401</ele>
        <time>2020-01-14T13:13:18Z</time>
      </trkpt>
      <trkpt lat="45.6448" lon="4.69496">
        <ele>401</ele>
        <time>2020-01-14T13:13:29Z</time>
      </trkpt>
      <trkpt lat="45.64494" lon="4.69507">
        <ele>400.7</ele>
        <time>2020-01-14T13:13:44Z</time>
      </trkpt>
      <trkpt lat="45.64507" lon="4.69509">
        <ele>401.1</ele>
        <time>2020-01-14T13:13:57Z</time>
      </trkpt>
      <trkpt lat="45.64508" lon="4.69509">
        <ele>401.2</ele>
        <time>2020-01-14T13:13:59Z</time>
      </trkpt>
      <trkpt lat="45.64522" lon="4.69514">
        <ele>401.7</ele>
        <time>2020-01-14T13:14:15Z</time>
      </trkpt>
      <trkpt lat="45.64534" lon="4.69518">
        <ele>401.8</ele>
        <time>2020-01-14T13:14:29Z</time>
      </trkpt>
      <trkpt lat="45.64546" lon="4.69521">
        <ele>402</ele>
        <time>2020-01-14T13:14:44Z</time>
      </trkpt>
      <trkpt lat="45.64554" lon="4.69523">
        <ele>402.1</ele>
        <time>2020-01-14T13:14:52Z</time>
      </trkpt>
      <trkpt lat="45.64561" lon="4.69525">
        <ele>402.1</ele>
        <time>2020-01-14T13:15:01Z</time>
      </trkpt>
      <trkpt lat="45.64565" lon="4.69525">
        <ele>402.2</ele>
        <time>2020-01-14T13:15:04Z</time>
      </trkpt>
      <trkpt lat="45.64583" lon="4.69528">
        <ele>402</ele>
        <time>2020-01-14T13:15:21Z</time>
      </trkpt>
      <trkpt lat="45.646" lon="4.6953">
        <ele>402.4</ele>
        <time>2020-01-14T13:15:38Z</time>
      </trkpt>
      <trkpt lat="45.64624" lon="4.69531">
        <ele>402.2</ele>
        <time>2020-01-14T13:15:59Z</time>
      </trkpt>
      <trkpt lat="45.64644" lon="4.69534">
        <ele>401.5</ele>
        <time>2020-01-14T13:16:16Z</time>
      </trkpt>
      <trkpt lat="45.64661" lon="4.69536">
        <ele>401.2</ele>
        <time>2020-01-14T13:16:33Z</time>
      </trkpt>
      <trkpt lat="45.6468" lon="4.69534">
        <ele>400.8</ele>
        <time>2020-01-14T13:16:49Z</time>
      </trkpt>
      <trkpt lat="45.64699" lon="4.69529">
        <ele>400.7</ele>
        <time>2020-01-14T13:17:05Z</time>
      </trkpt>
      <trkpt lat="45.64715" lon="4.69525">
        <ele>400.5</ele>
        <time>2020-01-14T13:17:22Z</time>
      </trkpt>
      <trkpt lat="45.64733" lon="4.69517">
        <ele>400.4</ele>
        <time>2020-01-14T13:17:38Z</time>
      </trkpt>
      <trkpt lat="45.64749" lon="4.69506">
        <ele>400.4</ele>
        <time>2020-01-14T13:17:53Z</time>
      </trkpt>
      <trkpt lat="45.64763" lon="4.69498">
        <ele>400.6</ele>
        <time>2020-01-14T13:18:06Z</time>
      </trkpt>
      <trkpt lat="45.64779" lon="4.69482">
        <ele>400.6</ele>
        <time>2020-01-14T13:18:23Z</time>
      </trkpt>
      <trkpt lat="45.64794" lon="4.69465">
        <ele>400.1</ele>
        <time>2020-01-14T13:18:41Z</time>
      </trkpt>
      <trkpt lat="45.64806" lon="4.69453">
        <ele>399.7</ele>
        <time>2020-01-14T13:18:54Z</time>
      </trkpt>
      <trkpt lat="45.6481" lon="4.6945">
        <ele>399.4</ele>
        <time>2020-01-14T13:18:58Z</time>
      </trkpt>
      <trkpt lat="45.64819" lon="4.69438">
        <ele>398.5</ele>
        <time>2020-01-14T13:19:10Z</time>
      </trkpt>
      <trkpt lat="45.64832" lon="4.69426">
        <ele>397.1</ele>
        <time>2020-01-14T13:19:25Z</time>
      </trkpt>
      <trkpt lat="45.6485" lon="4.69409">
        <ele>394.8</ele>
        <time>2020-01-14T13:19:43Z</time>
      </trkpt>
      <trkpt lat="45.64856" lon="4.69404">
        <ele>394.4</ele>
        <time>2020-01-14T13:19:48Z</time>
      </trkpt>
      <trkpt lat="45.64866" lon="4.69385">
        <ele>394.8</ele>
        <time>2020-01-14T13:20:05Z</time>
      </trkpt>
      <trkpt lat="45.64867" lon="4.69384">
        <ele>394.8</ele>
        <time>2020-01-14T13:20:06Z</time>
      </trkpt>
      <trkpt lat="45.64884" lon="4.69374">
        <ele>394.6</ele>
        <time>2020-01-14T13:20:19Z</time>
      </trkpt>
      <trkpt lat="45.64897" lon="4.69356">
        <ele>396.3</ele>
        <time>2020-01-14T13:20:36Z</time>
      </trkpt>
      <trkpt lat="45.64912" lon="4.69339">
        <ele>395.9</ele>
        <time>2020-01-14T13:20:53Z</time>
      </trkpt>
      <trkpt lat="45.64931" lon="4.69323">
        <ele>395.6</ele>
        <time>2020-01-14T13:21:12Z</time>
      </trkpt>
      <trkpt lat="45.64949" lon="4.69307">
        <ele>395.4</ele>
        <time>2020-01-14T13:21:31Z</time>
      </trkpt>
      <trkpt lat="45.64963" lon="4.69292">
        <ele>395.1</ele>
        <time>2020-01-14T13:21:47Z</time>
      </trkpt>
      <trkpt lat="45.64979" lon="4.69276">
        <ele>394.7</ele>
        <time>2020-01-14T13:22:04Z</time>
      </trkpt>
      <trkpt lat="45.64991" lon="4.69262">
        <ele>395.2</ele>
        <time>2020-01-14T13:22:20Z</time>
      </trkpt>
      <trkpt lat="45.65009" lon="4.69243">
        <ele>395.2</ele>
        <time>2020-01-14T13:22:39Z</time>
      </trkpt>
      <trkpt lat="45.65023" lon="4.69231">
        <ele>394.5</ele>
        <time>2020-01-14T13:22:55Z</time>
      </trkpt>
      <trkpt lat="45.65037" lon="4.69212">
        <ele>394.2</ele>
        <time>2020-01-14T13:23:14Z</time>
      </trkpt>
      <trkpt lat="45.65052" lon="4.69194">
        <ele>393.5</ele>
        <time>2020-01-14T13:23:30Z</time>
      </trkpt>
      <trkpt lat="45.65063" lon="4.69176">
        <ele>393.3</ele>
        <time>2020-01-14T13:23:45Z</time>
      </trkpt>
      <trkpt lat="45.65072" lon="4.69164">
        <ele>393.5</ele>
        <time>2020-01-14T13:23:56Z</time>
      </trkpt>
      <trkpt lat="45.65081" lon="4.69139">
        <ele>393.3</ele>
        <time>2020-01-14T13:24:15Z</time>
      </trkpt>
      <trkpt lat="45.65089" lon="4.69114">
        <ele>393.9</ele>
        <time>2020-01-14T13:24:34Z</time>
      </trkpt>
      <trkpt lat="45.65093" lon="4.69106">
        <ele>394.5</ele>
        <time>2020-01-14T13:24:42Z</time>
      </trkpt>
      <trkpt lat="45.65094" lon="4.69099">
        <ele>395.2</ele>
        <time>2020-01-14T13:24:46Z</time>
      </trkpt>
      <trkpt lat="45.65104" lon="4.69068">
        <ele>395.4</ele>
        <time>2020-01-14T13:25:03Z</time>
      </trkpt>
      <trkpt lat="45.6511" lon="4.69043">
        <ele>393.7</ele>
        <time>2020-01-14T13:25:19Z</time>
      </trkpt>
      <trkpt lat="45.65111" lon="4.69021">
        <ele>392.8</ele>
        <time>2020-01-14T13:25:34Z</time>
      </trkpt>
      <trkpt lat="45.65117" lon="4.68992">
        <ele>391.5</ele>
        <time>2020-01-14T13:25:52Z</time>
      </trkpt>
      <trkpt lat="45.65118" lon="4.68983">
        <ele>391.1</ele>
        <time>2020-01-14T13:25:58Z</time>
      </trkpt>
      <trkpt lat="45.65122" lon="4.68955">
        <ele>390.1</ele>
        <time>2020-01-14T13:26:17Z</time>
      </trkpt>
      <trkpt lat="45.65124" lon="4.68934">
        <ele>389.1</ele>
        <time>2020-01-14T13:26:33Z</time>
      </trkpt>
      <trkpt lat="45.65124" lon="4.68933">
        <ele>389</ele>
        <time>2020-01-14T13:26:57Z</time>
      </trkpt>
      <trkpt lat="45.65124" lon="4.68933">
        <ele>389</ele>
        <time>2020-01-14T13:27:25Z</time>
      </trkpt>
      <trkpt lat="45.65126" lon="4.68914">
        <ele>387.7</ele>
        <time>2020-01-14T13:27:37Z</time>
      </trkpt>
      <trkpt lat="45.65128" lon="4.68892">
        <ele>386.3</ele>
        <time>2020-01-14T13:27:51Z</time>
      </trkpt>
      <trkpt lat="45.65134" lon="4.68871">
        <ele>385.1</ele>
        <time>2020-01-14T13:28:07Z</time>
      </trkpt>
      <trkpt lat="45.65139" lon="4.68846">
        <ele>386</ele>
        <time>2020-01-14T13:28:22Z</time>
      </trkpt>
      <trkpt lat="45.65147" lon="4.68824">
        <ele>384.3</ele>
        <time>2020-01-14T13:28:37Z</time>
      </trkpt>
      <trkpt lat="45.65154" lon="4.68804">
        <ele>384.6</ele>
        <time>2020-01-14T13:28:53Z</time>
      </trkpt>
      <trkpt lat="45.65155" lon="4.68799">
        <ele>385.2</ele>
        <time>2020-01-14T13:28:56Z</time>
      </trkpt>
      <trkpt lat="45.65166" lon="4.68778">
        <ele>387.9</ele>
        <time>2020-01-14T13:29:12Z</time>
      </trkpt>
      <trkpt lat="45.65176" lon="4.68756">
        <ele>388</ele>
        <time>2020-01-14T13:29:29Z</time>
      </trkpt>
      <trkpt lat="45.6519" lon="4.68737">
        <ele>388.3</ele>
        <time>2020-01-14T13:29:46Z</time>
      </trkpt>
      <trkpt lat="45.65196" lon="4.68728">
        <ele>388.5</ele>
        <time>2020-01-14T13:29:54Z</time>
      </trkpt>
      <trkpt lat="45.65206" lon="4.6871">
        <ele>388.8</ele>
        <time>2020-01-14T13:30:10Z</time>
      </trkpt>
      <trkpt lat="45.65214" lon="4.68692">
        <ele>389.5</ele>
        <time>2020-01-14T13:30:24Z</time>
      </trkpt>
      <trkpt lat="45.65224" lon="4.68678">
        <ele>390.7</ele>
        <time>2020-01-14T13:30:39Z</time>
      </trkpt>
      <trkpt lat="45.65237" lon="4.68656">
        <ele>391.1</ele>
        <time>2020-01-14T13:30:59Z</time>
      </trkpt>
      <trkpt lat="45.65242" lon="4.68643">
        <ele>390.5</ele>
        <time>2020-01-14T13:31:14Z</time>
      </trkpt>
      <trkpt lat="45.6525" lon="4.68625">
        <ele>391</ele>
        <time>2020-01-14T13:31:31Z</time>
      </trkpt>
      <trkpt lat="45.65257" lon="4.68622">
        <ele>391.2</ele>
        <time>2020-01-14T13:31:44Z</time>
      </trkpt>
      <trkpt lat="45.65257" lon="4.68618">
        <ele>391.7</ele>
        <time>2020-01-14T13:31:59Z</time>
      </trkpt>
      <trkpt lat="45.65261" lon="4.68607">
        <ele>392.2</ele>
        <time>2020-01-14T13:32:18Z</time>
      </trkpt>
      <trkpt lat="45.6527" lon="4.68596">
        <ele>391.3</ele>
        <time>2020-01-14T13:32:32Z</time>
      </trkpt>
      <trkpt lat="45.65281" lon="4.68583">
        <ele>390.2</ele>
        <time>2020-01-14T13:32:48Z</time>
      </trkpt>
      <trkpt lat="45.65282" lon="4.68581">
        <ele>390.4</ele>
        <time>2020-01-14T13:33:02Z</time>
      </trkpt>
      <trkpt lat="45.65282" lon="4.68577">
        <ele>390.9</ele>
        <time>2020-01-14T13:33:14Z</time>
      </trkpt>
      <trkpt lat="45.65289" lon="4.6857">
        <ele>391.4</ele>
        <time>2020-01-14T13:33:31Z</time>
      </trkpt>
      <trkpt lat="45.65299" lon="4.68558">
        <ele>390.9</ele>
        <time>2020-01-14T13:33:47Z</time>
      </trkpt>
      <trkpt lat="45.65304" lon="4.68552">
        <ele>390.6</ele>
        <time>2020-01-14T13:34:06Z</time>
      </trkpt>
      <trkpt lat="45.65311" lon="4.68547">
        <ele>390.6</ele>
        <time>2020-01-14T13:34:22Z</time>
      </trkpt>
      <trkpt lat="45.65318" lon="4.68537">
        <ele>390.5</ele>
        <time>2020-01-14T13:34:35Z</time>
      </trkpt>
      <trkpt lat="45.6533" lon="4.68529">
        <ele>388.7</ele>
        <time>2020-01-14T13:34:49Z</time>
      </trkpt>
      <trkpt lat="45.65339" lon="4.68523">
        <ele>388</ele>
        <time>2020-01-14T13:35:00Z</time>
      </trkpt>
      <trkpt lat="45.65354" lon="4.6851">
        <ele>386.2</ele>
        <time>2020-01-14T13:35:17Z</time>
      </trkpt>
      <trkpt lat="45.6536" lon="4.68508">
        <ele>385</ele>
        <time>2020-01-14T13:35:30Z</time>
      </trkpt>
      <trkpt lat="45.6537" lon="4.68501">
        <ele>383.8</ele>
        <time>2020-01-14T13:35:41Z</time>
      </trkpt>
      <trkpt lat="45.65389" lon="4.68495">
        <ele>381.7</ele>
        <time>2020-01-14T13:35:57Z</time>
      </trkpt>
      <trkpt lat="45.65402" lon="4.68491">
        <ele>379.6</ele>
        <time>2020-01-14T13:36:11Z</time>
      </trkpt>
      <trkpt lat="45.65408" lon="4.68491">
        <ele>379.1</ele>
        <time>2020-01-14T13:36:19Z</time>
      </trkpt>
      <trkpt lat="45.65418" lon="4.68492">
        <ele>378.5</ele>
        <time>2020-01-14T13:36:32Z</time>
      </trkpt>
      <trkpt lat="45.65433" lon="4.6849">
        <ele>380.5</ele>
        <time>2020-01-14T13:36:48Z</time>
      </trkpt>
      <trkpt lat="45.65447" lon="4.68486">
        <ele>382.6</ele>
        <time>2020-01-14T13:37:01Z</time>
      </trkpt>
      <trkpt lat="45.65455" lon="4.68488">
        <ele>382.4</ele>
        <time>2020-01-14T13:37:16Z</time>
      </trkpt>
      <trkpt lat="45.65463" lon="4.68489">
        <ele>382.3</ele>
        <time>2020-01-14T13:37:23Z</time>
      </trkpt>
      <trkpt lat="45.65476" lon="4.68493">
        <ele>381.7</ele>
        <time>2020-01-14T13:37:35Z</time>
      </trkpt>
      <trkpt lat="45.65493" lon="4.68494">
        <ele>382.1</ele>
        <time>2020-01-14T13:37:45Z</time>
      </trkpt>
      <trkpt lat="45.65501" lon="4.68497">
        <ele>381.3</ele>
        <time>2020-01-14T13:37:51Z</time>
      </trkpt>
      <trkpt lat="45.6551" lon="4.68502">
        <ele>381.1</ele>
        <time>2020-01-14T13:37:59Z</time>
      </trkpt>
      <trkpt lat="45.65515" lon="4.68506">
        <ele>381.1</ele>
        <time>2020-01-14T13:38:04Z</time>
      </trkpt>
      <trkpt lat="45.65523" lon="4.68509">
        <ele>381.5</ele>
        <time>2020-01-14T13:38:11Z</time>
      </trkpt>
      <trkpt lat="45.65534" lon="4.68517">
        <ele>381.1</ele>
        <time>2020-01-14T13:38:22Z</time>
      </trkpt>
      <trkpt lat="45.65545" lon="4.68528">
        <ele>379.2</ele>
        <time>2020-01-14T13:38:35Z</time>
      </trkpt>
      <trkpt lat="45.65561" lon="4.68534">
        <ele>379.9</ele>
        <time>2020-01-14T13:38:49Z</time>
      </trkpt>
      <trkpt lat="45.65564" lon="4.68535">
        <ele>380.2</ele>
        <time>2020-01-14T13:38:52Z</time>
      </trkpt>
      <trkpt lat="45.65574" lon="4.68541">
        <ele>380.3</ele>
        <time>2020-01-14T13:39:04Z</time>
      </trkpt>
      <trkpt lat="45.65577" lon="4.68542">
        <ele>380.5</ele>
        <time>2020-01-14T13:39:10Z</time>
      </trkpt>
      <trkpt lat="45.6558" lon="4.68544">
        <ele>380.3</ele>
        <time>2020-01-14T13:39:12Z</time>
      </trkpt>
      <trkpt lat="45.65595" lon="4.68557">
        <ele>379.3</ele>
        <time>2020-01-14T13:39:26Z</time>
      </trkpt>
      <trkpt lat="45.65605" lon="4.68567">
        <ele>379.9</ele>
        <time>2020-01-14T13:39:39Z</time>
      </trkpt>
      <trkpt lat="45.65622" lon="4.68581">
        <ele>380.5</ele>
        <time>2020-01-14T13:39:54Z</time>
      </trkpt>
      <trkpt lat="45.65639" lon="4.68599">
        <ele>380.3</ele>
        <time>2020-01-14T13:40:10Z</time>
      </trkpt>
      <trkpt lat="45.65641" lon="4.68602">
        <ele>380.1</ele>
        <time>2020-01-14T13:40:14Z</time>
      </trkpt>
      <trkpt lat="45.65654" lon="4.68619">
        <ele>378.3</ele>
        <time>2020-01-14T13:40:29Z</time>
      </trkpt>
      <trkpt lat="45.65662" lon="4.6863">
        <ele>377.9</ele>
        <time>2020-01-14T13:40:39Z</time>
      </trkpt>
      <trkpt lat="45.65664" lon="4.68634">
        <ele>377.9</ele>
        <time>2020-01-14T13:40:42Z</time>
      </trkpt>
      <trkpt lat="45.65675" lon="4.68647">
        <ele>377.8</ele>
        <time>2020-01-14T13:40:54Z</time>
      </trkpt>
      <trkpt lat="45.65686" lon="4.68662">
        <ele>376.7</ele>
        <time>2020-01-14T13:41:05Z</time>
      </trkpt>
      <trkpt lat="45.6569" lon="4.68669">
        <ele>376.1</ele>
        <time>2020-01-14T13:41:10Z</time>
      </trkpt>
      <trkpt lat="45.65702" lon="4.68688">
        <ele>375.3</ele>
        <time>2020-01-14T13:41:24Z</time>
      </trkpt>
      <trkpt lat="45.65711" lon="4.68698">
        <ele>375</ele>
        <time>2020-01-14T13:41:35Z</time>
      </trkpt>
      <trkpt lat="45.65721" lon="4.6871">
        <ele>375</ele>
        <time>2020-01-14T13:41:46Z</time>
      </trkpt>
      <trkpt lat="45.65733" lon="4.68728">
        <ele>374.9</ele>
        <time>2020-01-14T13:42:01Z</time>
      </trkpt>
      <trkpt lat="45.65738" lon="4.68736">
        <ele>374.7</ele>
        <time>2020-01-14T13:42:09Z</time>
      </trkpt>
      <trkpt lat="45.65742" lon="4.68742">
        <ele>374.5</ele>
        <time>2020-01-14T13:42:14Z</time>
      </trkpt>
      <trkpt lat="45.65753" lon="4.68753">
        <ele>374.1</ele>
        <time>2020-01-14T13:42:28Z</time>
      </trkpt>
      <trkpt lat="45.65764" lon="4.68763">
        <ele>374.2</ele>
        <time>2020-01-14T13:42:42Z</time>
      </trkpt>
      <trkpt lat="45.65776" lon="4.68776">
        <ele>374.1</ele>
        <time>2020-01-14T13:42:57Z</time>
      </trkpt>
      <trkpt lat="45.65786" lon="4.68782">
        <ele>374.6</ele>
        <time>2020-01-14T13:43:06Z</time>
      </trkpt>
      <trkpt lat="45.65792" lon="4.68788">
        <ele>375</ele>
        <time>2020-01-14T13:43:13Z</time>
      </trkpt>
      <trkpt lat="45.65804" lon="4.68799">
        <ele>375.9</ele>
        <time>2020-01-14T13:43:26Z</time>
      </trkpt>
      <trkpt lat="45.65806" lon="4.68801">
        <ele>376</ele>
        <time>2020-01-14T13:43:28Z</time>
      </trkpt>
      <trkpt lat="45.65808" lon="4.68803">
        <ele>376.1</ele>
        <time>2020-01-14T13:43:30Z</time>
      </trkpt>
      <trkpt lat="45.65815" lon="4.68809">
        <ele>376.3</ele>
        <time>2020-01-14T13:43:37Z</time>
      </trkpt>
      <trkpt lat="45.65821" lon="4.68814">
        <ele>376.6</ele>
        <time>2020-01-14T13:43:43Z</time>
      </trkpt>
      <trkpt lat="45.65828" lon="4.68815">
        <ele>376.8</ele>
        <time>2020-01-14T13:43:57Z</time>
      </trkpt>
      <trkpt lat="45.65829" lon="4.68815">
        <ele>376.8</ele>
        <time>2020-01-14T13:44:16Z</time>
      </trkpt>
      <trkpt lat="45.65828" lon="4.68815">
        <ele>376.8</ele>
        <time>2020-01-14T13:44:42Z</time>
      </trkpt>
      <trkpt lat="45.65828" lon="4.68816">
        <ele>376.8</ele>
        <time>2020-01-14T13:45:08Z</time>
      </trkpt>
      <trkpt lat="45.6583" lon="4.68817">
        <ele>376.9</ele>
        <time>2020-01-14T13:45:29Z</time>
      </trkpt>
      <trkpt lat="45.65832" lon="4.68816">
        <ele>377</ele>
        <time>2020-01-14T13:45:52Z</time>
      </trkpt>
      <trkpt lat="45.65832" lon="4.68816">
        <ele>377</ele>
        <time>2020-01-14T13:46:05Z</time>
      </trkpt>
      <trkpt lat="45.65832" lon="4.68816">
        <ele>377</ele>
        <time>2020-01-14T13:46:25Z</time>
      </trkpt>
      <trkpt lat="45.65832" lon="4.68816">
        <ele>377</ele>
        <time>2020-01-14T13:46:55Z</time>
      </trkpt>
      <trkpt lat="45.65833" lon="4.68816">
        <ele>377</ele>
        <time>2020-01-14T13:47:17Z</time>
      </trkpt>
      <trkpt lat="45.65833" lon="4.68816">
        <ele>377</ele>
        <time>2020-01-14T13:47:44Z</time>
      </trkpt>
      <trkpt lat="45.65833" lon="4.68816">
        <ele>377</ele>
        <time>2020-01-14T13:48:08Z</time>
      </trkpt>
      <trkpt lat="45.65836" lon="4.6881">
        <ele>377.1</ele>
        <time>2020-01-14T13:48:28Z</time>
      </trkpt>
      <trkpt lat="45.6584" lon="4.688">
        <ele>377.2</ele>
        <time>2020-01-14T13:48:37Z</time>
      </trkpt>
      <trkpt lat="45.65846" lon="4.68785">
        <ele>377.5</ele>
        <time>2020-01-14T13:48:49Z</time>
      </trkpt>
      <trkpt lat="45.65851" lon="4.68776">
        <ele>377.7</ele>
        <time>2020-01-14T13:48:58Z</time>
      </trkpt>
      <trkpt lat="45.65855" lon="4.68762">
        <ele>378.8</ele>
        <time>2020-01-14T13:49:08Z</time>
      </trkpt>
      <trkpt lat="45.65856" lon="4.68759">
        <ele>379</ele>
        <time>2020-01-14T13:49:10Z</time>
      </trkpt>
      <trkpt lat="45.65858" lon="4.68755">
        <ele>379.4</ele>
        <time>2020-01-14T13:49:14Z</time>
      </trkpt>
      <trkpt lat="45.65861" lon="4.68748">
        <ele>380.1</ele>
        <time>2020-01-14T13:49:20Z</time>
      </trkpt>
      <trkpt lat="45.65869" lon="4.68729">
        <ele>381.3</ele>
        <time>2020-01-14T13:49:35Z</time>
      </trkpt>
      <trkpt lat="45.65869" lon="4.68727">
        <ele>381.3</ele>
        <time>2020-01-14T13:49:36Z</time>
      </trkpt>
      <trkpt lat="45.6587" lon="4.68725">
        <ele>381.5</ele>
        <time>2020-01-14T13:49:38Z</time>
      </trkpt>
      <trkpt lat="45.65875" lon="4.68706">
        <ele>383.2</ele>
        <time>2020-01-14T13:49:52Z</time>
      </trkpt>
      <trkpt lat="45.6588" lon="4.6869">
        <ele>384.7</ele>
        <time>2020-01-14T13:50:04Z</time>
      </trkpt>
      <trkpt lat="45.65884" lon="4.68676">
        <ele>386.1</ele>
        <time>2020-01-14T13:50:14Z</time>
      </trkpt>
      <trkpt lat="45.65886" lon="4.68671">
        <ele>386.6</ele>
        <time>2020-01-14T13:50:18Z</time>
      </trkpt>
      <trkpt lat="45.65886" lon="4.6867">
        <ele>386.6</ele>
        <time>2020-01-14T13:50:19Z</time>
      </trkpt>
      <trkpt lat="45.65888" lon="4.68664">
        <ele>387.3</ele>
        <time>2020-01-14T13:50:24Z</time>
      </trkpt>
      <trkpt lat="45.65893" lon="4.68645">
        <ele>389.5</ele>
        <time>2020-01-14T13:50:39Z</time>
      </trkpt>
      <trkpt lat="45.65894" lon="4.68643">
        <ele>389.8</ele>
        <time>2020-01-14T13:50:41Z</time>
      </trkpt>
      <trkpt lat="45.65899" lon="4.68621">
        <ele>391.2</ele>
        <time>2020-01-14T13:50:57Z</time>
      </trkpt>
      <trkpt lat="45.65904" lon="4.68605">
        <ele>392.4</ele>
        <time>2020-01-14T13:51:09Z</time>
      </trkpt>
      <trkpt lat="45.65911" lon="4.6858">
        <ele>393.9</ele>
        <time>2020-01-14T13:51:26Z</time>
      </trkpt>
      <trkpt lat="45.65914" lon="4.6857">
        <ele>394.4</ele>
        <time>2020-01-14T13:51:33Z</time>
      </trkpt>
      <trkpt lat="45.6592" lon="4.68547">
        <ele>395.4</ele>
        <time>2020-01-14T13:51:50Z</time>
      </trkpt>
      <trkpt lat="45.6592" lon="4.68543">
        <ele>395.6</ele>
        <time>2020-01-14T13:51:53Z</time>
      </trkpt>
      <trkpt lat="45.65919" lon="4.68537">
        <ele>395.8</ele>
        <time>2020-01-14T13:51:58Z</time>
      </trkpt>
      <trkpt lat="45.65908" lon="4.68518">
        <ele>396</ele>
        <time>2020-01-14T13:52:15Z</time>
      </trkpt>
      <trkpt lat="45.65907" lon="4.68515">
        <ele>396.1</ele>
        <time>2020-01-14T13:52:17Z</time>
      </trkpt>
      <trkpt lat="45.65904" lon="4.68509">
        <ele>396.2</ele>
        <time>2020-01-14T13:52:22Z</time>
      </trkpt>
      <trkpt lat="45.65892" lon="4.68487">
        <ele>396.5</ele>
        <time>2020-01-14T13:52:41Z</time>
      </trkpt>
      <trkpt lat="45.65882" lon="4.68471">
        <ele>396.8</ele>
        <time>2020-01-14T13:52:55Z</time>
      </trkpt>
      <trkpt lat="45.65874" lon="4.68454">
        <ele>397.1</ele>
        <time>2020-01-14T13:53:11Z</time>
      </trkpt>
      <trkpt lat="45.65865" lon="4.68439">
        <ele>397.3</ele>
        <time>2020-01-14T13:53:23Z</time>
      </trkpt>
      <trkpt lat="45.65857" lon="4.68425">
        <ele>397.7</ele>
        <time>2020-01-14T13:53:30Z</time>
      </trkpt>
      <trkpt lat="45.65853" lon="4.68418">
        <ele>398</ele>
        <time>2020-01-14T13:53:35Z</time>
      </trkpt>
      <trkpt lat="45.65842" lon="4.68401">
        <ele>398.6</ele>
        <time>2020-01-14T13:53:50Z</time>
      </trkpt>
      <trkpt lat="45.65832" lon="4.68384">
        <ele>399.2</ele>
        <time>2020-01-14T13:54:04Z</time>
      </trkpt>
      <trkpt lat="45.65826" lon="4.68373">
        <ele>399.8</ele>
        <time>2020-01-14T13:54:13Z</time>
      </trkpt>
      <trkpt lat="45.65816" lon="4.68356">
        <ele>400.7</ele>
        <time>2020-01-14T13:54:28Z</time>
      </trkpt>
      <trkpt lat="45.65813" lon="4.68349">
        <ele>401.1</ele>
        <time>2020-01-14T13:54:33Z</time>
      </trkpt>
      <trkpt lat="45.65803" lon="4.68332">
        <ele>402.1</ele>
        <time>2020-01-14T13:54:48Z</time>
      </trkpt>
      <trkpt lat="45.65793" lon="4.68315">
        <ele>403.1</ele>
        <time>2020-01-14T13:55:03Z</time>
      </trkpt>
      <trkpt lat="45.65785" lon="4.68301">
        <ele>403.9</ele>
        <time>2020-01-14T13:55:15Z</time>
      </trkpt>
      <trkpt lat="45.65784" lon="4.68298">
        <ele>404</ele>
        <time>2020-01-14T13:55:17Z</time>
      </trkpt>
      <trkpt lat="45.65778" lon="4.68282">
        <ele>404.8</ele>
        <time>2020-01-14T13:55:30Z</time>
      </trkpt>
      <trkpt lat="45.6577" lon="4.68261">
        <ele>406.3</ele>
        <time>2020-01-14T13:55:47Z</time>
      </trkpt>
      <trkpt lat="45.65761" lon="4.68244">
        <ele>407.6</ele>
        <time>2020-01-14T13:56:01Z</time>
      </trkpt>
      <trkpt lat="45.65755" lon="4.68235">
        <ele>408.6</ele>
        <time>2020-01-14T13:56:11Z</time>
      </trkpt>
      <trkpt lat="45.6575" lon="4.68226">
        <ele>409.7</ele>
        <time>2020-01-14T13:56:23Z</time>
      </trkpt>
      <trkpt lat="45.6575" lon="4.68225">
        <ele>409.8</ele>
        <time>2020-01-14T13:56:27Z</time>
      </trkpt>
      <trkpt lat="45.65744" lon="4.68216">
        <ele>410.5</ele>
        <time>2020-01-14T13:56:39Z</time>
      </trkpt>
      <trkpt lat="45.65739" lon="4.6821">
        <ele>411</ele>
        <time>2020-01-14T13:56:47Z</time>
      </trkpt>
      <trkpt lat="45.65731" lon="4.68203">
        <ele>411.8</ele>
        <time>2020-01-14T13:56:57Z</time>
      </trkpt>
      <trkpt lat="45.65718" lon="4.68192">
        <ele>413.3</ele>
        <time>2020-01-14T13:57:12Z</time>
      </trkpt>
      <trkpt lat="45.65717" lon="4.68191">
        <ele>413.4</ele>
        <time>2020-01-14T13:57:14Z</time>
      </trkpt>
      <trkpt lat="45.65701" lon="4.68178">
        <ele>414.5</ele>
        <time>2020-01-14T13:57:31Z</time>
      </trkpt>
      <trkpt lat="45.65684" lon="4.68164">
        <ele>415.7</ele>
        <time>2020-01-14T13:57:50Z</time>
      </trkpt>
      <trkpt lat="45.65669" lon="4.68154">
        <ele>416.8</ele>
        <time>2020-01-14T13:58:05Z</time>
      </trkpt>
      <trkpt lat="45.65653" lon="4.68144">
        <ele>418.1</ele>
        <time>2020-01-14T13:58:21Z</time>
      </trkpt>
      <trkpt lat="45.65641" lon="4.68135">
        <ele>418.8</ele>
        <time>2020-01-14T13:58:36Z</time>
      </trkpt>
      <trkpt lat="45.65629" lon="4.68127">
        <ele>419.6</ele>
        <time>2020-01-14T13:58:52Z</time>
      </trkpt>
      <trkpt lat="45.6562" lon="4.6812">
        <ele>419.9</ele>
        <time>2020-01-14T13:59:04Z</time>
      </trkpt>
      <trkpt lat="45.65608" lon="4.68111">
        <ele>420.2</ele>
        <time>2020-01-14T13:59:20Z</time>
      </trkpt>
      <trkpt lat="45.65593" lon="4.68104">
        <ele>420.9</ele>
        <time>2020-01-14T13:59:35Z</time>
      </trkpt>
      <trkpt lat="45.65578" lon="4.68094">
        <ele>421.2</ele>
        <time>2020-01-14T13:59:52Z</time>
      </trkpt>
      <trkpt lat="45.65564" lon="4.68085">
        <ele>421.5</ele>
        <time>2020-01-14T14:00:08Z</time>
      </trkpt>
      <trkpt lat="45.65551" lon="4.68077">
        <ele>421.9</ele>
        <time>2020-01-14T14:00:21Z</time>
      </trkpt>
      <trkpt lat="45.65537" lon="4.68069">
        <ele>422.3</ele>
        <time>2020-01-14T14:00:38Z</time>
      </trkpt>
      <trkpt lat="45.65522" lon="4.68057">
        <ele>422.3</ele>
        <time>2020-01-14T14:00:54Z</time>
      </trkpt>
      <trkpt lat="45.65506" lon="4.68046">
        <ele>422</ele>
        <time>2020-01-14T14:01:10Z</time>
      </trkpt>
      <trkpt lat="45.65491" lon="4.68035">
        <ele>422.1</ele>
        <time>2020-01-14T14:01:26Z</time>
      </trkpt>
      <trkpt lat="45.65476" lon="4.68025">
        <ele>422.6</ele>
        <time>2020-01-14T14:01:42Z</time>
      </trkpt>
      <trkpt lat="45.6546" lon="4.68013">
        <ele>422.9</ele>
        <time>2020-01-14T14:01:58Z</time>
      </trkpt>
      <trkpt lat="45.65454" lon="4.68009">
        <ele>423</ele>
        <time>2020-01-14T14:02:04Z</time>
      </trkpt>
      <trkpt lat="45.6545" lon="4.68006">
        <ele>423</ele>
        <time>2020-01-14T14:02:09Z</time>
      </trkpt>
      <trkpt lat="45.65433" lon="4.67995">
        <ele>423.2</ele>
        <time>2020-01-14T14:02:26Z</time>
      </trkpt>
      <trkpt lat="45.65416" lon="4.67984">
        <ele>423.4</ele>
        <time>2020-01-14T14:02:44Z</time>
      </trkpt>
      <trkpt lat="45.65401" lon="4.67977">
        <ele>423.6</ele>
        <time>2020-01-14T14:02:58Z</time>
      </trkpt>
      <trkpt lat="45.65389" lon="4.67957">
        <ele>424</ele>
        <time>2020-01-14T14:03:14Z</time>
      </trkpt>
      <trkpt lat="45.65377" lon="4.67934">
        <ele>423.6</ele>
        <time>2020-01-14T14:03:33Z</time>
      </trkpt>
      <trkpt lat="45.65369" lon="4.67923">
        <ele>423.3</ele>
        <time>2020-01-14T14:03:43Z</time>
      </trkpt>
      <trkpt lat="45.6536" lon="4.67903">
        <ele>422.9</ele>
        <time>2020-01-14T14:03:58Z</time>
      </trkpt>
      <trkpt lat="45.65355" lon="4.67875">
        <ele>423.2</ele>
        <time>2020-01-14T14:04:16Z</time>
      </trkpt>
      <trkpt lat="45.65352" lon="4.67858">
        <ele>423.4</ele>
        <time>2020-01-14T14:04:32Z</time>
      </trkpt>
      <trkpt lat="45.65348" lon="4.67841">
        <ele>423.4</ele>
        <time>2020-01-14T14:04:49Z</time>
      </trkpt>
      <trkpt lat="45.65347" lon="4.67836">
        <ele>423.4</ele>
        <time>2020-01-14T14:05:05Z</time>
      </trkpt>
      <trkpt lat="45.65346" lon="4.67834">
        <ele>423.4</ele>
        <time>2020-01-14T14:05:20Z</time>
      </trkpt>
      <trkpt lat="45.65347" lon="4.67835">
        <ele>423.5</ele>
        <time>2020-01-14T14:05:53Z</time>
      </trkpt>
      <trkpt lat="45.65346" lon="4.67834">
        <ele>423.4</ele>
        <time>2020-01-14T14:06:11Z</time>
      </trkpt>
      <trkpt lat="45.65346" lon="4.67833">
        <ele>423.5</ele>
        <time>2020-01-14T14:06:30Z</time>
      </trkpt>
      <trkpt lat="45.65346" lon="4.67833">
        <ele>423.5</ele>
        <time>2020-01-14T14:06:54Z</time>
      </trkpt>
      <trkpt lat="45.65346" lon="4.67832">
        <ele>423.5</ele>
        <time>2020-01-14T14:07:32Z</time>
      </trkpt>
      <trkpt lat="45.65346" lon="4.67831">
        <ele>423.5</ele>
        <time>2020-01-14T14:07:53Z</time>
      </trkpt>
      <trkpt lat="45.65347" lon="4.67831">
        <ele>423.5</ele>
        <time>2020-01-14T14:08:17Z</time>
      </trkpt>
      <trkpt lat="45.65347" lon="4.67831">
        <ele>423.5</ele>
        <time>2020-01-14T14:08:43Z</time>
      </trkpt>
      <trkpt lat="45.65346" lon="4.67832">
        <ele>423.5</ele>
        <time>2020-01-14T14:09:11Z</time>
      </trkpt>
      <trkpt lat="45.65346" lon="4.67831">
        <ele>423.5</ele>
        <time>2020-01-14T14:09:37Z</time>
      </trkpt>
      <trkpt lat="45.65344" lon="4.67827">
        <ele>423.4</ele>
        <time>2020-01-14T14:09:56Z</time>
      </trkpt>
      <trkpt lat="45.6534" lon="4.67816">
        <ele>423.2</ele>
        <time>2020-01-14T14:10:08Z</time>
      </trkpt>
      <trkpt lat="45.65335" lon="4.67802">
        <ele>423.2</ele>
        <time>2020-01-14T14:10:23Z</time>
      </trkpt>
      <trkpt lat="45.65334" lon="4.67799">
        <ele>423.2</ele>
        <time>2020-01-14T14:10:26Z</time>
      </trkpt>
      <trkpt lat="45.65326" lon="4.67783">
        <ele>424</ele>
        <time>2020-01-14T14:10:42Z</time>
      </trkpt>
      <trkpt lat="45.65316" lon="4.67772">
        <ele>424.9</ele>
        <time>2020-01-14T14:10:57Z</time>
      </trkpt>
      <trkpt lat="45.65314" lon="4.67768">
        <ele>425.2</ele>
        <time>2020-01-14T14:11:02Z</time>
      </trkpt>
      <trkpt lat="45.65306" lon="4.6776">
        <ele>426.2</ele>
        <time>2020-01-14T14:11:16Z</time>
      </trkpt>
      <trkpt lat="45.65302" lon="4.67754">
        <ele>426.7</ele>
        <time>2020-01-14T14:11:23Z</time>
      </trkpt>
      <trkpt lat="45.65297" lon="4.6775">
        <ele>427</ele>
        <time>2020-01-14T14:11:29Z</time>
      </trkpt>
      <trkpt lat="45.65296" lon="4.67748">
        <ele>427</ele>
        <time>2020-01-14T14:11:31Z</time>
      </trkpt>
      <trkpt lat="45.65295" lon="4.67747">
        <ele>427</ele>
        <time>2020-01-14T14:11:32Z</time>
      </trkpt>
      <trkpt lat="45.65295" lon="4.67747">
        <ele>427</ele>
        <time>2020-01-14T14:11:33Z</time>
      </trkpt>
      <trkpt lat="45.65294" lon="4.67745">
        <ele>427.1</ele>
        <time>2020-01-14T14:11:35Z</time>
      </trkpt>
      <trkpt lat="45.65283" lon="4.67733">
        <ele>427.5</ele>
        <time>2020-01-14T14:11:49Z</time>
      </trkpt>
      <trkpt lat="45.65272" lon="4.67721">
        <ele>428.1</ele>
        <time>2020-01-14T14:12:03Z</time>
      </trkpt>
      <trkpt lat="45.65268" lon="4.67718">
        <ele>428.2</ele>
        <time>2020-01-14T14:12:08Z</time>
      </trkpt>
      <trkpt lat="45.65253" lon="4.67709">
        <ele>428.9</ele>
        <time>2020-01-14T14:12:24Z</time>
      </trkpt>
      <trkpt lat="45.65239" lon="4.67704">
        <ele>429.4</ele>
        <time>2020-01-14T14:12:39Z</time>
      </trkpt>
      <trkpt lat="45.65223" lon="4.67701">
        <ele>429.8</ele>
        <time>2020-01-14T14:12:53Z</time>
      </trkpt>
      <trkpt lat="45.65208" lon="4.67694">
        <ele>431.1</ele>
        <time>2020-01-14T14:13:10Z</time>
      </trkpt>
      <trkpt lat="45.65202" lon="4.6769">
        <ele>431.8</ele>
        <time>2020-01-14T14:13:17Z</time>
      </trkpt>
      <trkpt lat="45.65196" lon="4.67687">
        <ele>432.4</ele>
        <time>2020-01-14T14:13:23Z</time>
      </trkpt>
      <trkpt lat="45.65185" lon="4.67681">
        <ele>433.3</ele>
        <time>2020-01-14T14:13:35Z</time>
      </trkpt>
      <trkpt lat="45.65182" lon="4.67679">
        <ele>433.6</ele>
        <time>2020-01-14T14:13:38Z</time>
      </trkpt>
      <trkpt lat="45.65168" lon="4.67671">
        <ele>434.6</ele>
        <time>2020-01-14T14:13:53Z</time>
      </trkpt>
      <trkpt lat="45.65156" lon="4.67663">
        <ele>435.8</ele>
        <time>2020-01-14T14:14:07Z</time>
      </trkpt>
      <trkpt lat="45.65152" lon="4.67659">
        <ele>436.4</ele>
        <time>2020-01-14T14:14:13Z</time>
      </trkpt>
      <trkpt lat="45.6514" lon="4.67651">
        <ele>437.7</ele>
        <time>2020-01-14T14:14:28Z</time>
      </trkpt>
      <trkpt lat="45.65133" lon="4.67646">
        <ele>438.5</ele>
        <time>2020-01-14T14:14:37Z</time>
      </trkpt>
      <trkpt lat="45.6513" lon="4.67643">
        <ele>438.9</ele>
        <time>2020-01-14T14:14:41Z</time>
      </trkpt>
      <trkpt lat="45.65117" lon="4.67634">
        <ele>440.5</ele>
        <time>2020-01-14T14:14:57Z</time>
      </trkpt>
      <trkpt lat="45.65107" lon="4.67628">
        <ele>441.8</ele>
        <time>2020-01-14T14:15:08Z</time>
      </trkpt>
      <trkpt lat="45.65093" lon="4.67618">
        <ele>443.8</ele>
        <time>2020-01-14T14:15:25Z</time>
      </trkpt>
      <trkpt lat="45.6508" lon="4.6761">
        <ele>445.3</ele>
        <time>2020-01-14T14:15:41Z</time>
      </trkpt>
      <trkpt lat="45.65069" lon="4.67602">
        <ele>447.2</ele>
        <time>2020-01-14T14:15:55Z</time>
      </trkpt>
      <trkpt lat="45.65067" lon="4.67601">
        <ele>447.4</ele>
        <time>2020-01-14T14:15:57Z</time>
      </trkpt>
      <trkpt lat="45.65055" lon="4.67592">
        <ele>449.5</ele>
        <time>2020-01-14T14:16:13Z</time>
      </trkpt>
      <trkpt lat="45.65048" lon="4.67586">
        <ele>450.6</ele>
        <time>2020-01-14T14:16:23Z</time>
      </trkpt>
      <trkpt lat="45.65046" lon="4.67583">
        <ele>451.1</ele>
        <time>2020-01-14T14:16:26Z</time>
      </trkpt>
      <trkpt lat="45.65043" lon="4.6758">
        <ele>451.5</ele>
        <time>2020-01-14T14:16:31Z</time>
      </trkpt>
      <trkpt lat="45.65039" lon="4.67576">
        <ele>452.2</ele>
        <time>2020-01-14T14:16:36Z</time>
      </trkpt>
      <trkpt lat="45.65029" lon="4.67564">
        <ele>453.8</ele>
        <time>2020-01-14T14:16:50Z</time>
      </trkpt>
      <trkpt lat="45.65025" lon="4.67559">
        <ele>454.6</ele>
        <time>2020-01-14T14:16:56Z</time>
      </trkpt>
      <trkpt lat="45.65023" lon="4.67556">
        <ele>455.1</ele>
        <time>2020-01-14T14:17:00Z</time>
      </trkpt>
      <trkpt lat="45.6502" lon="4.67553">
        <ele>455.5</ele>
        <time>2020-01-14T14:17:04Z</time>
      </trkpt>
      <trkpt lat="45.65013" lon="4.67544">
        <ele>456.6</ele>
        <time>2020-01-14T14:17:15Z</time>
      </trkpt>
      <trkpt lat="45.65003" lon="4.67531">
        <ele>457.8</ele>
        <time>2020-01-14T14:17:30Z</time>
      </trkpt>
      <trkpt lat="45.64995" lon="4.67519">
        <ele>459.3</ele>
        <time>2020-01-14T14:17:43Z</time>
      </trkpt>
      <trkpt lat="45.64987" lon="4.67509">
        <ele>460.6</ele>
        <time>2020-01-14T14:17:56Z</time>
      </trkpt>
      <trkpt lat="45.64976" lon="4.67496">
        <ele>462</ele>
        <time>2020-01-14T14:18:12Z</time>
      </trkpt>
      <trkpt lat="45.64975" lon="4.67493">
        <ele>462.2</ele>
        <time>2020-01-14T14:18:15Z</time>
      </trkpt>
      <trkpt lat="45.64972" lon="4.67489">
        <ele>462.4</ele>
        <time>2020-01-14T14:18:20Z</time>
      </trkpt>
      <trkpt lat="45.6496" lon="4.67475">
        <ele>463.4</ele>
        <time>2020-01-14T14:18:37Z</time>
      </trkpt>
      <trkpt lat="45.64949" lon="4.67462">
        <ele>463.9</ele>
        <time>2020-01-14T14:18:52Z</time>
      </trkpt>
      <trkpt lat="45.64939" lon="4.67454">
        <ele>464.2</ele>
        <time>2020-01-14T14:19:02Z</time>
      </trkpt>
      <trkpt lat="45.64933" lon="4.67449">
        <ele>464.4</ele>
        <time>2020-01-14T14:19:09Z</time>
      </trkpt>
      <trkpt lat="45.64927" lon="4.67445">
        <ele>464.6</ele>
        <time>2020-01-14T14:19:15Z</time>
      </trkpt>
      <trkpt lat="45.64909" lon="4.67439">
        <ele>465.6</ele>
        <time>2020-01-14T14:19:31Z</time>
      </trkpt>
      <trkpt lat="45.64898" lon="4.67439">
        <ele>466.3</ele>
        <time>2020-01-14T14:19:43Z</time>
      </trkpt>
      <trkpt lat="45.64884" lon="4.67435">
        <ele>467.4</ele>
        <time>2020-01-14T14:19:57Z</time>
      </trkpt>
      <trkpt lat="45.64874" lon="4.67432">
        <ele>468.1</ele>
        <time>2020-01-14T14:20:07Z</time>
      </trkpt>
      <trkpt lat="45.64871" lon="4.67431">
        <ele>468.3</ele>
        <time>2020-01-14T14:20:10Z</time>
      </trkpt>
      <trkpt lat="45.64867" lon="4.67429">
        <ele>468.6</ele>
        <time>2020-01-14T14:20:14Z</time>
      </trkpt>
      <trkpt lat="45.64864" lon="4.67428">
        <ele>468.8</ele>
        <time>2020-01-14T14:20:17Z</time>
      </trkpt>
      <trkpt lat="45.64852" lon="4.67424">
        <ele>469.9</ele>
        <time>2020-01-14T14:20:32Z</time>
      </trkpt>
      <trkpt lat="45.6485" lon="4.67432">
        <ele>470</ele>
        <time>2020-01-14T14:20:42Z</time>
      </trkpt>
      <trkpt lat="45.64851" lon="4.67456">
        <ele>469.3</ele>
        <time>2020-01-14T14:20:58Z</time>
      </trkpt>
      <trkpt lat="45.64851" lon="4.67463">
        <ele>469.1</ele>
        <time>2020-01-14T14:21:05Z</time>
      </trkpt>
      <trkpt lat="45.6485" lon="4.67467">
        <ele>469</ele>
        <time>2020-01-14T14:21:07Z</time>
      </trkpt>
      <trkpt lat="45.64851" lon="4.6748">
        <ele>468.7</ele>
        <time>2020-01-14T14:21:19Z</time>
      </trkpt>
      <trkpt lat="45.64848" lon="4.675">
        <ele>468.9</ele>
        <time>2020-01-14T14:21:32Z</time>
      </trkpt>
      <trkpt lat="45.64842" lon="4.67519">
        <ele>468.7</ele>
        <time>2020-01-14T14:21:42Z</time>
      </trkpt>
      <trkpt lat="45.64825" lon="4.67529">
        <ele>469.2</ele>
        <time>2020-01-14T14:21:57Z</time>
      </trkpt>
      <trkpt lat="45.64811" lon="4.67531">
        <ele>469.6</ele>
        <time>2020-01-14T14:22:10Z</time>
      </trkpt>
      <trkpt lat="45.64807" lon="4.67532">
        <ele>469.6</ele>
        <time>2020-01-14T14:22:14Z</time>
      </trkpt>
      <trkpt lat="45.64797" lon="4.67532">
        <ele>470.3</ele>
        <time>2020-01-14T14:22:22Z</time>
      </trkpt>
      <trkpt lat="45.64782" lon="4.67534">
        <ele>471.1</ele>
        <time>2020-01-14T14:22:34Z</time>
      </trkpt>
      <trkpt lat="45.64777" lon="4.67534">
        <ele>471.4</ele>
        <time>2020-01-14T14:22:39Z</time>
      </trkpt>
      <trkpt lat="45.64768" lon="4.67535">
        <ele>471.9</ele>
        <time>2020-01-14T14:22:48Z</time>
      </trkpt>
      <trkpt lat="45.64766" lon="4.67535">
        <ele>472.1</ele>
        <time>2020-01-14T14:22:50Z</time>
      </trkpt>
      <trkpt lat="45.64759" lon="4.67536">
        <ele>472.5</ele>
        <time>2020-01-14T14:22:58Z</time>
      </trkpt>
      <trkpt lat="45.64744" lon="4.67536">
        <ele>473.9</ele>
        <time>2020-01-14T14:23:13Z</time>
      </trkpt>
      <trkpt lat="45.64742" lon="4.67537">
        <ele>474.1</ele>
        <time>2020-01-14T14:23:16Z</time>
      </trkpt>
      <trkpt lat="45.64737" lon="4.67538">
        <ele>474.6</ele>
        <time>2020-01-14T14:23:22Z</time>
      </trkpt>
      <trkpt lat="45.64731" lon="4.67537">
        <ele>475.5</ele>
        <time>2020-01-14T14:23:29Z</time>
      </trkpt>
      <trkpt lat="45.6472" lon="4.67541">
        <ele>476.1</ele>
        <time>2020-01-14T14:23:41Z</time>
      </trkpt>
      <trkpt lat="45.64711" lon="4.67535">
        <ele>477.1</ele>
        <time>2020-01-14T14:23:53Z</time>
      </trkpt>
      <trkpt lat="45.64706" lon="4.67529">
        <ele>477.8</ele>
        <time>2020-01-14T14:24:05Z</time>
      </trkpt>
      <trkpt lat="45.6471" lon="4.67521">
        <ele>478.9</ele>
        <time>2020-01-14T14:24:19Z</time>
      </trkpt>
      <trkpt lat="45.64713" lon="4.6752">
        <ele>479</ele>
        <time>2020-01-14T14:24:23Z</time>
      </trkpt>
      <trkpt lat="45.64715" lon="4.6752">
        <ele>479</ele>
        <time>2020-01-14T14:24:25Z</time>
      </trkpt>
      <trkpt lat="45.64716" lon="4.6752">
        <ele>479</ele>
        <time>2020-01-14T14:24:26Z</time>
      </trkpt>
      <trkpt lat="45.64719" lon="4.67514">
        <ele>479.6</ele>
        <time>2020-01-14T14:24:32Z</time>
      </trkpt>
      <trkpt lat="45.64721" lon="4.67507">
        <ele>480.3</ele>
        <time>2020-01-14T14:24:38Z</time>
      </trkpt>
      <trkpt lat="45.64721" lon="4.67503">
        <ele>480.8</ele>
        <time>2020-01-14T14:24:41Z</time>
      </trkpt>
      <trkpt lat="45.6472" lon="4.67498">
        <ele>481.2</ele>
        <time>2020-01-14T14:24:45Z</time>
      </trkpt>
      <trkpt lat="45.6472" lon="4.67483">
        <ele>481.8</ele>
        <time>2020-01-14T14:24:58Z</time>
      </trkpt>
      <trkpt lat="45.64715" lon="4.67482">
        <ele>482.3</ele>
        <time>2020-01-14T14:25:09Z</time>
      </trkpt>
      <trkpt lat="45.64712" lon="4.6748">
        <ele>482.7</ele>
        <time>2020-01-14T14:25:13Z</time>
      </trkpt>
      <trkpt lat="45.64709" lon="4.67479">
        <ele>483.1</ele>
        <time>2020-01-14T14:25:19Z</time>
      </trkpt>
      <trkpt lat="45.64707" lon="4.6748">
        <ele>483.2</ele>
        <time>2020-01-14T14:25:24Z</time>
      </trkpt>
      <trkpt lat="45.64707" lon="4.6748">
        <ele>483.2</ele>
        <time>2020-01-14T14:25:25Z</time>
      </trkpt>
      <trkpt lat="45.64707" lon="4.67483">
        <ele>483</ele>
        <time>2020-01-14T14:25:32Z</time>
      </trkpt>
      <trkpt lat="45.64707" lon="4.67483">
        <ele>483</ele>
        <time>2020-01-14T14:25:33Z</time>
      </trkpt>
      <trkpt lat="45.64703" lon="4.67492">
        <ele>482.9</ele>
        <time>2020-01-14T14:25:47Z</time>
      </trkpt>
      <trkpt lat="45.64703" lon="4.67494">
        <ele>482.7</ele>
        <time>2020-01-14T14:25:54Z</time>
      </trkpt>
      <trkpt lat="45.64702" lon="4.67494">
        <ele>482.8</ele>
        <time>2020-01-14T14:25:56Z</time>
      </trkpt>
      <trkpt lat="45.64702" lon="4.67496">
        <ele>482.7</ele>
        <time>2020-01-14T14:26:11Z</time>
      </trkpt>
      <trkpt lat="45.64701" lon="4.67496">
        <ele>482.8</ele>
        <time>2020-01-14T14:26:41Z</time>
      </trkpt>
      <trkpt lat="45.64702" lon="4.67497">
        <ele>482.6</ele>
        <time>2020-01-14T14:27:11Z</time>
      </trkpt>
      <trkpt lat="45.64702" lon="4.67496">
        <ele>482.7</ele>
        <time>2020-01-14T14:27:37Z</time>
      </trkpt>
      <trkpt lat="45.64702" lon="4.67496">
        <ele>482.7</ele>
        <time>2020-01-14T14:28:03Z</time>
      </trkpt>
      <trkpt lat="45.64702" lon="4.67496">
        <ele>482.7</ele>
        <time>2020-01-14T14:28:31Z</time>
      </trkpt>
      <trkpt lat="45.64702" lon="4.67486">
        <ele>483.3</ele>
        <time>2020-01-14T14:28:44Z</time>
      </trkpt>
      <trkpt lat="45.64701" lon="4.67485">
        <ele>483.5</ele>
        <time>2020-01-14T14:29:11Z</time>
      </trkpt>
      <trkpt lat="45.647" lon="4.67485">
        <ele>483.6</ele>
        <time>2020-01-14T14:29:37Z</time>
      </trkpt>
      <trkpt lat="45.64701" lon="4.67486">
        <ele>483.4</ele>
        <time>2020-01-14T14:30:02Z</time>
      </trkpt>
      <trkpt lat="45.64701" lon="4.67486">
        <ele>483.4</ele>
        <time>2020-01-14T14:30:28Z</time>
      </trkpt>
      <trkpt lat="45.64702" lon="4.67491">
        <ele>483</ele>
        <time>2020-01-14T14:30:37Z</time>
      </trkpt>
      <trkpt lat="45.64703" lon="4.67493">
        <ele>482.8</ele>
        <time>2020-01-14T14:30:39Z</time>
      </trkpt>
      <trkpt lat="45.64707" lon="4.675">
        <ele>482.1</ele>
        <time>2020-01-14T14:30:51Z</time>
      </trkpt>
      <trkpt lat="45.64707" lon="4.675">
        <ele>482.1</ele>
        <time>2020-01-14T14:31:01Z</time>
      </trkpt>
      <trkpt lat="45.64707" lon="4.67499">
        <ele>482.2</ele>
        <time>2020-01-14T14:31:30Z</time>
      </trkpt>
      <trkpt lat="45.64707" lon="4.67499">
        <ele>482.2</ele>
        <time>2020-01-14T14:31:55Z</time>
      </trkpt>
      <trkpt lat="45.64707" lon="4.67499">
        <ele>482.2</ele>
        <time>2020-01-14T14:32:18Z</time>
      </trkpt>
      <trkpt lat="45.64707" lon="4.675">
        <ele>482.1</ele>
        <time>2020-01-14T14:32:46Z</time>
      </trkpt>
      <trkpt lat="45.64707" lon="4.675">
        <ele>482.1</ele>
        <time>2020-01-14T14:32:57Z</time>
      </trkpt>
      <trkpt lat="45.64707" lon="4.675">
        <ele>482.1</ele>
        <time>2020-01-14T14:33:20Z</time>
      </trkpt>
      <trkpt lat="45.64708" lon="4.67496">
        <ele>482.2</ele>
        <time>2020-01-14T14:33:28Z</time>
      </trkpt>
      <trkpt lat="45.64705" lon="4.67487">
        <ele>483</ele>
        <time>2020-01-14T14:33:41Z</time>
      </trkpt>
      <trkpt lat="45.64704" lon="4.67486">
        <ele>483.1</ele>
        <time>2020-01-14T14:33:54Z</time>
      </trkpt>
      <trkpt lat="45.64703" lon="4.67487">
        <ele>483.2</ele>
        <time>2020-01-14T14:33:56Z</time>
      </trkpt>
      <trkpt lat="45.64698" lon="4.6749">
        <ele>483.4</ele>
        <time>2020-01-14T14:34:09Z</time>
      </trkpt>
      <trkpt lat="45.64698" lon="4.675">
        <ele>482.7</ele>
        <time>2020-01-14T14:34:22Z</time>
      </trkpt>
      <trkpt lat="45.647" lon="4.67514">
        <ele>480.3</ele>
        <time>2020-01-14T14:34:35Z</time>
      </trkpt>
      <trkpt lat="45.64704" lon="4.67524">
        <ele>478.6</ele>
        <time>2020-01-14T14:34:49Z</time>
      </trkpt>
      <trkpt lat="45.64703" lon="4.67531">
        <ele>477.6</ele>
        <time>2020-01-14T14:35:00Z</time>
      </trkpt>
      <trkpt lat="45.64703" lon="4.67531">
        <ele>477.6</ele>
        <time>2020-01-14T14:35:18Z</time>
      </trkpt>
      <trkpt lat="45.64703" lon="4.67531">
        <ele>477.6</ele>
        <time>2020-01-14T14:35:21Z</time>
      </trkpt>
      <trkpt lat="45.64703" lon="4.67532">
        <ele>477.5</ele>
        <time>2020-01-14T14:35:41Z</time>
      </trkpt>
      <trkpt lat="45.64705" lon="4.67534">
        <ele>477.2</ele>
        <time>2020-01-14T14:36:00Z</time>
      </trkpt>
      <trkpt lat="45.64709" lon="4.67536">
        <ele>477</ele>
        <time>2020-01-14T14:36:17Z</time>
      </trkpt>
      <trkpt lat="45.64718" lon="4.6754">
        <ele>476.3</ele>
        <time>2020-01-14T14:36:33Z</time>
      </trkpt>
      <trkpt lat="45.64727" lon="4.67541">
        <ele>475.5</ele>
        <time>2020-01-14T14:36:44Z</time>
      </trkpt>
      <trkpt lat="45.64734" lon="4.67541">
        <ele>474.6</ele>
        <time>2020-01-14T14:36:51Z</time>
      </trkpt>
      <trkpt lat="45.64736" lon="4.67541">
        <ele>474.3</ele>
        <time>2020-01-14T14:36:54Z</time>
      </trkpt>
      <trkpt lat="45.6474" lon="4.6754">
        <ele>474</ele>
        <time>2020-01-14T14:36:58Z</time>
      </trkpt>
      <trkpt lat="45.64753" lon="4.67537">
        <ele>472.8</ele>
        <time>2020-01-14T14:37:09Z</time>
      </trkpt>
      <trkpt lat="45.64774" lon="4.67535">
        <ele>471.5</ele>
        <time>2020-01-14T14:37:27Z</time>
      </trkpt>
      <trkpt lat="45.64791" lon="4.67533">
        <ele>470.6</ele>
        <time>2020-01-14T14:37:40Z</time>
      </trkpt>
      <trkpt lat="45.64801" lon="4.67533">
        <ele>469.9</ele>
        <time>2020-01-14T14:37:49Z</time>
      </trkpt>
      <trkpt lat="45.64803" lon="4.67532">
        <ele>469.9</ele>
        <time>2020-01-14T14:37:51Z</time>
      </trkpt>
      <trkpt lat="45.64824" lon="4.6753">
        <ele>469.2</ele>
        <time>2020-01-14T14:38:07Z</time>
      </trkpt>
      <trkpt lat="45.6484" lon="4.67525">
        <ele>468.6</ele>
        <time>2020-01-14T14:38:21Z</time>
      </trkpt>
      <trkpt lat="45.64848" lon="4.67528">
        <ele>467.9</ele>
        <time>2020-01-14T14:38:32Z</time>
      </trkpt>
      <trkpt lat="45.6485" lon="4.67537">
        <ele>467.1</ele>
        <time>2020-01-14T14:38:39Z</time>
      </trkpt>
      <trkpt lat="45.64851" lon="4.67545">
        <ele>466.5</ele>
        <time>2020-01-14T14:38:44Z</time>
      </trkpt>
      <trkpt lat="45.64851" lon="4.67552">
        <ele>466</ele>
        <time>2020-01-14T14:38:50Z</time>
      </trkpt>
      <trkpt lat="45.64852" lon="4.67573">
        <ele>464.8</ele>
        <time>2020-01-14T14:39:05Z</time>
      </trkpt>
      <trkpt lat="45.64854" lon="4.67593">
        <ele>463.2</ele>
        <time>2020-01-14T14:39:19Z</time>
      </trkpt>
      <trkpt lat="45.64855" lon="4.67611">
        <ele>461.2</ele>
        <time>2020-01-14T14:39:32Z</time>
      </trkpt>
      <trkpt lat="45.64855" lon="4.67613">
        <ele>461</ele>
        <time>2020-01-14T14:39:33Z</time>
      </trkpt>
      <trkpt lat="45.64856" lon="4.67633">
        <ele>458.2</ele>
        <time>2020-01-14T14:39:47Z</time>
      </trkpt>
      <trkpt lat="45.64857" lon="4.67643">
        <ele>457</ele>
        <time>2020-01-14T14:39:54Z</time>
      </trkpt>
      <trkpt lat="45.64858" lon="4.67646">
        <ele>456.7</ele>
        <time>2020-01-14T14:39:56Z</time>
      </trkpt>
      <trkpt lat="45.64859" lon="4.67651">
        <ele>456.2</ele>
        <time>2020-01-14T14:39:59Z</time>
      </trkpt>
      <trkpt lat="45.64851" lon="4.6767">
        <ele>454.9</ele>
        <time>2020-01-14T14:40:13Z</time>
      </trkpt>
      <trkpt lat="45.64839" lon="4.67678">
        <ele>454.5</ele>
        <time>2020-01-14T14:40:25Z</time>
      </trkpt>
      <trkpt lat="45.64819" lon="4.67687">
        <ele>453.8</ele>
        <time>2020-01-14T14:40:41Z</time>
      </trkpt>
      <trkpt lat="45.64806" lon="4.67694">
        <ele>453</ele>
        <time>2020-01-14T14:40:54Z</time>
      </trkpt>
      <trkpt lat="45.64805" lon="4.67695">
        <ele>452.9</ele>
        <time>2020-01-14T14:40:55Z</time>
      </trkpt>
      <trkpt lat="45.64797" lon="4.67695">
        <ele>452.6</ele>
        <time>2020-01-14T14:41:03Z</time>
      </trkpt>
      <trkpt lat="45.64782" lon="4.67694">
        <ele>452.2</ele>
        <time>2020-01-14T14:41:18Z</time>
      </trkpt>
      <trkpt lat="45.64768" lon="4.67695">
        <ele>451.6</ele>
        <time>2020-01-14T14:41:30Z</time>
      </trkpt>
      <trkpt lat="45.64757" lon="4.67698">
        <ele>450.6</ele>
        <time>2020-01-14T14:41:38Z</time>
      </trkpt>
      <trkpt lat="45.64742" lon="4.67701">
        <ele>449.3</ele>
        <time>2020-01-14T14:41:53Z</time>
      </trkpt>
      <trkpt lat="45.64737" lon="4.67701">
        <ele>449</ele>
        <time>2020-01-14T14:41:58Z</time>
      </trkpt>
      <trkpt lat="45.64733" lon="4.67702">
        <ele>448.6</ele>
        <time>2020-01-14T14:42:01Z</time>
      </trkpt>
      <trkpt lat="45.64718" lon="4.67711">
        <ele>446.2</ele>
        <time>2020-01-14T14:42:14Z</time>
      </trkpt>
      <trkpt lat="45.64709" lon="4.67722">
        <ele>443.6</ele>
        <time>2020-01-14T14:42:26Z</time>
      </trkpt>
      <trkpt lat="45.64703" lon="4.67736">
        <ele>440.8</ele>
        <time>2020-01-14T14:42:39Z</time>
      </trkpt>
      <trkpt lat="45.647" lon="4.67742">
        <ele>439.6</ele>
        <time>2020-01-14T14:42:44Z</time>
      </trkpt>
      <trkpt lat="45.64698" lon="4.67751">
        <ele>438.1</ele>
        <time>2020-01-14T14:42:51Z</time>
      </trkpt>
      <trkpt lat="45.6469" lon="4.67772">
        <ele>435.3</ele>
        <time>2020-01-14T14:43:08Z</time>
      </trkpt>
      <trkpt lat="45.64685" lon="4.67791">
        <ele>433.1</ele>
        <time>2020-01-14T14:43:23Z</time>
      </trkpt>
      <trkpt lat="45.64676" lon="4.6781">
        <ele>430.9</ele>
        <time>2020-01-14T14:43:38Z</time>
      </trkpt>
      <trkpt lat="45.64676" lon="4.67813">
        <ele>430.6</ele>
        <time>2020-01-14T14:43:40Z</time>
      </trkpt>
      <trkpt lat="45.64674" lon="4.6782">
        <ele>429.8</ele>
        <time>2020-01-14T14:43:45Z</time>
      </trkpt>
      <trkpt lat="45.64669" lon="4.67838">
        <ele>427.8</ele>
        <time>2020-01-14T14:43:58Z</time>
      </trkpt>
      <trkpt lat="45.64661" lon="4.67858">
        <ele>426.2</ele>
        <time>2020-01-14T14:44:12Z</time>
      </trkpt>
      <trkpt lat="45.64659" lon="4.67866">
        <ele>425.8</ele>
        <time>2020-01-14T14:44:17Z</time>
      </trkpt>
      <trkpt lat="45.64655" lon="4.67882">
        <ele>424.9</ele>
        <time>2020-01-14T14:44:28Z</time>
      </trkpt>
      <trkpt lat="45.64653" lon="4.67885">
        <ele>424.7</ele>
        <time>2020-01-14T14:44:30Z</time>
      </trkpt>
      <trkpt lat="45.64645" lon="4.67908">
        <ele>423.5</ele>
        <time>2020-01-14T14:44:47Z</time>
      </trkpt>
      <trkpt lat="45.6464" lon="4.67928">
        <ele>422.6</ele>
        <time>2020-01-14T14:45:01Z</time>
      </trkpt>
      <trkpt lat="45.64637" lon="4.67936">
        <ele>422.2</ele>
        <time>2020-01-14T14:45:07Z</time>
      </trkpt>
      <trkpt lat="45.64626" lon="4.67941">
        <ele>421.3</ele>
        <time>2020-01-14T14:45:22Z</time>
      </trkpt>
      <trkpt lat="45.64623" lon="4.67938">
        <ele>421.2</ele>
        <time>2020-01-14T14:45:26Z</time>
      </trkpt>
      <trkpt lat="45.64607" lon="4.67924">
        <ele>421.1</ele>
        <time>2020-01-14T14:45:43Z</time>
      </trkpt>
      <trkpt lat="45.64592" lon="4.67913">
        <ele>420.2</ele>
        <time>2020-01-14T14:45:58Z</time>
      </trkpt>
      <trkpt lat="45.6458" lon="4.67905">
        <ele>419.7</ele>
        <time>2020-01-14T14:46:12Z</time>
      </trkpt>
      <trkpt lat="45.64575" lon="4.67902">
        <ele>419.8</ele>
        <time>2020-01-14T14:46:18Z</time>
      </trkpt>
      <trkpt lat="45.64569" lon="4.67899">
        <ele>419.8</ele>
        <time>2020-01-14T14:46:25Z</time>
      </trkpt>
      <trkpt lat="45.64552" lon="4.67894">
        <ele>419.5</ele>
        <time>2020-01-14T14:46:41Z</time>
      </trkpt>
      <trkpt lat="45.64534" lon="4.67894">
        <ele>418.7</ele>
        <time>2020-01-14T14:46:58Z</time>
      </trkpt>
      <trkpt lat="45.64533" lon="4.67893">
        <ele>418.8</ele>
        <time>2020-01-14T14:47:00Z</time>
      </trkpt>
      <trkpt lat="45.64526" lon="4.67894">
        <ele>418.3</ele>
        <time>2020-01-14T14:47:07Z</time>
      </trkpt>
      <trkpt lat="45.64512" lon="4.67896">
        <ele>417.4</ele>
        <time>2020-01-14T14:47:20Z</time>
      </trkpt>
      <trkpt lat="45.64495" lon="4.67894">
        <ele>416.6</ele>
        <time>2020-01-14T14:47:36Z</time>
      </trkpt>
      <trkpt lat="45.64489" lon="4.67896">
        <ele>416.3</ele>
        <time>2020-01-14T14:47:42Z</time>
      </trkpt>
      <trkpt lat="45.64484" lon="4.679">
        <ele>416</ele>
        <time>2020-01-14T14:47:46Z</time>
      </trkpt>
      <trkpt lat="45.64468" lon="4.67903">
        <ele>415.4</ele>
        <time>2020-01-14T14:48:01Z</time>
      </trkpt>
      <trkpt lat="45.64462" lon="4.67906">
        <ele>415.2</ele>
        <time>2020-01-14T14:48:06Z</time>
      </trkpt>
      <trkpt lat="45.64454" lon="4.67917">
        <ele>414.3</ele>
        <time>2020-01-14T14:48:18Z</time>
      </trkpt>
      <trkpt lat="45.6445" lon="4.67927">
        <ele>413.8</ele>
        <time>2020-01-14T14:48:26Z</time>
      </trkpt>
      <trkpt lat="45.64443" lon="4.67945">
        <ele>413</ele>
        <time>2020-01-14T14:48:42Z</time>
      </trkpt>
      <trkpt lat="45.6444" lon="4.67953">
        <ele>412.6</ele>
        <time>2020-01-14T14:48:48Z</time>
      </trkpt>
      <trkpt lat="45.64438" lon="4.67959">
        <ele>412.4</ele>
        <time>2020-01-14T14:48:52Z</time>
      </trkpt>
      <trkpt lat="45.64431" lon="4.6798">
        <ele>410.9</ele>
        <time>2020-01-14T14:49:09Z</time>
      </trkpt>
      <trkpt lat="45.64423" lon="4.68004">
        <ele>409.5</ele>
        <time>2020-01-14T14:49:26Z</time>
      </trkpt>
      <trkpt lat="45.64417" lon="4.68021">
        <ele>408.5</ele>
        <time>2020-01-14T14:49:38Z</time>
      </trkpt>
      <trkpt lat="45.64412" lon="4.68037">
        <ele>407.7</ele>
        <time>2020-01-14T14:49:50Z</time>
      </trkpt>
      <trkpt lat="45.64403" lon="4.68058">
        <ele>406.9</ele>
        <time>2020-01-14T14:50:08Z</time>
      </trkpt>
      <trkpt lat="45.64393" lon="4.68077">
        <ele>406.2</ele>
        <time>2020-01-14T14:50:23Z</time>
      </trkpt>
      <trkpt lat="45.64386" lon="4.68096">
        <ele>405</ele>
        <time>2020-01-14T14:50:36Z</time>
      </trkpt>
      <trkpt lat="45.64384" lon="4.68102">
        <ele>404.6</ele>
        <time>2020-01-14T14:50:41Z</time>
      </trkpt>
      <trkpt lat="45.64377" lon="4.68119">
        <ele>403.7</ele>
        <time>2020-01-14T14:50:55Z</time>
      </trkpt>
      <trkpt lat="45.64371" lon="4.68132">
        <ele>403.2</ele>
        <time>2020-01-14T14:51:06Z</time>
      </trkpt>
      <trkpt lat="45.64363" lon="4.68147">
        <ele>402.4</ele>
        <time>2020-01-14T14:51:23Z</time>
      </trkpt>
      <trkpt lat="45.64354" lon="4.68165">
        <ele>401.1</ele>
        <time>2020-01-14T14:51:37Z</time>
      </trkpt>
      <trkpt lat="45.64343" lon="4.68186">
        <ele>400.3</ele>
        <time>2020-01-14T14:51:53Z</time>
      </trkpt>
      <trkpt lat="45.64335" lon="4.68199">
        <ele>399.7</ele>
        <time>2020-01-14T14:52:08Z</time>
      </trkpt>
      <trkpt lat="45.64326" lon="4.68215">
        <ele>398.5</ele>
        <time>2020-01-14T14:52:23Z</time>
      </trkpt>
      <trkpt lat="45.64326" lon="4.68215">
        <ele>398.5</ele>
        <time>2020-01-14T14:52:25Z</time>
      </trkpt>
      <trkpt lat="45.64323" lon="4.6822">
        <ele>398.1</ele>
        <time>2020-01-14T14:52:29Z</time>
      </trkpt>
      <trkpt lat="45.6432" lon="4.68226">
        <ele>397.9</ele>
        <time>2020-01-14T14:52:32Z</time>
      </trkpt>
      <trkpt lat="45.64309" lon="4.68246">
        <ele>397.1</ele>
        <time>2020-01-14T14:52:48Z</time>
      </trkpt>
      <trkpt lat="45.64301" lon="4.68261">
        <ele>396.4</ele>
        <time>2020-01-14T14:53:02Z</time>
      </trkpt>
      <trkpt lat="45.64294" lon="4.68276">
        <ele>395.6</ele>
        <time>2020-01-14T14:53:14Z</time>
      </trkpt>
      <trkpt lat="45.64291" lon="4.6828">
        <ele>395.4</ele>
        <time>2020-01-14T14:53:17Z</time>
      </trkpt>
      <trkpt lat="45.64282" lon="4.68297">
        <ele>394.5</ele>
        <time>2020-01-14T14:53:31Z</time>
      </trkpt>
      <trkpt lat="45.64271" lon="4.6831">
        <ele>393.8</ele>
        <time>2020-01-14T14:53:45Z</time>
      </trkpt>
      <trkpt lat="45.64258" lon="4.6832">
        <ele>393.1</ele>
        <time>2020-01-14T14:53:58Z</time>
      </trkpt>
      <trkpt lat="45.64242" lon="4.68327">
        <ele>392.5</ele>
        <time>2020-01-14T14:54:13Z</time>
      </trkpt>
      <trkpt lat="45.64231" lon="4.68338">
        <ele>391.9</ele>
        <time>2020-01-14T14:54:27Z</time>
      </trkpt>
      <trkpt lat="45.64223" lon="4.68343">
        <ele>391.7</ele>
        <time>2020-01-14T14:54:35Z</time>
      </trkpt>
      <trkpt lat="45.64208" lon="4.68354">
        <ele>391.3</ele>
        <time>2020-01-14T14:54:50Z</time>
      </trkpt>
      <trkpt lat="45.64207" lon="4.68355">
        <ele>391.2</ele>
        <time>2020-01-14T14:54:52Z</time>
      </trkpt>
      <trkpt lat="45.64191" lon="4.68369">
        <ele>390.7</ele>
        <time>2020-01-14T14:55:11Z</time>
      </trkpt>
      <trkpt lat="45.64176" lon="4.68382">
        <ele>389.7</ele>
        <time>2020-01-14T14:55:27Z</time>
      </trkpt>
      <trkpt lat="45.64164" lon="4.68386">
        <ele>389.2</ele>
        <time>2020-01-14T14:55:38Z</time>
      </trkpt>
      <trkpt lat="45.64154" lon="4.68376">
        <ele>389.9</ele>
        <time>2020-01-14T14:55:50Z</time>
      </trkpt>
      <trkpt lat="45.64146" lon="4.68373">
        <ele>390.1</ele>
        <time>2020-01-14T14:55:58Z</time>
      </trkpt>
      <trkpt lat="45.64133" lon="4.68373">
        <ele>390.1</ele>
        <time>2020-01-14T14:56:10Z</time>
      </trkpt>
      <trkpt lat="45.64117" lon="4.6837">
        <ele>390.4</ele>
        <time>2020-01-14T14:56:24Z</time>
      </trkpt>
      <trkpt lat="45.64103" lon="4.68368">
        <ele>390.5</ele>
        <time>2020-01-14T14:56:37Z</time>
      </trkpt>
      <trkpt lat="45.641" lon="4.68368">
        <ele>390.5</ele>
        <time>2020-01-14T14:56:40Z</time>
      </trkpt>
      <trkpt lat="45.64089" lon="4.68367">
        <ele>390.6</ele>
        <time>2020-01-14T14:56:52Z</time>
      </trkpt>
      <trkpt lat="45.64085" lon="4.68366">
        <ele>390.6</ele>
        <time>2020-01-14T14:57:08Z</time>
      </trkpt>
      <trkpt lat="45.64085" lon="4.68366">
        <ele>390.6</ele>
        <time>2020-01-14T14:57:24Z</time>
      </trkpt>
      <trkpt lat="45.64085" lon="4.68366">
        <ele>390.6</ele>
        <time>2020-01-14T14:57:50Z</time>
      </trkpt>
      <trkpt lat="45.64085" lon="4.68366">
        <ele>390.6</ele>
        <time>2020-01-14T14:58:15Z</time>
      </trkpt>
      <trkpt lat="45.64084" lon="4.68372">
        <ele>390.2</ele>
        <time>2020-01-14T14:58:37Z</time>
      </trkpt>
      <trkpt lat="45.6408" lon="4.68384">
        <ele>389.3</ele>
        <time>2020-01-14T14:58:53Z</time>
      </trkpt>
      <trkpt lat="45.64067" lon="4.68386">
        <ele>389.1</ele>
        <time>2020-01-14T14:59:07Z</time>
      </trkpt>
      <trkpt lat="45.64058" lon="4.68386">
        <ele>389.1</ele>
        <time>2020-01-14T14:59:18Z</time>
      </trkpt>
      <trkpt lat="45.64055" lon="4.68387">
        <ele>389.1</ele>
        <time>2020-01-14T14:59:21Z</time>
      </trkpt>
      <trkpt lat="45.64041" lon="4.68399">
        <ele>388.6</ele>
        <time>2020-01-14T14:59:37Z</time>
      </trkpt>
      <trkpt lat="45.64041" lon="4.68402">
        <ele>388.5</ele>
        <time>2020-01-14T14:59:40Z</time>
      </trkpt>
      <trkpt lat="45.64039" lon="4.68407">
        <ele>388.3</ele>
        <time>2020-01-14T14:59:44Z</time>
      </trkpt>
      <trkpt lat="45.64038" lon="4.68419">
        <ele>387.9</ele>
        <time>2020-01-14T14:59:54Z</time>
      </trkpt>
      <trkpt lat="45.64032" lon="4.68429">
        <ele>387.2</ele>
        <time>2020-01-14T15:00:02Z</time>
      </trkpt>
      <trkpt lat="45.64017" lon="4.68438">
        <ele>386.4</ele>
        <time>2020-01-14T15:00:18Z</time>
      </trkpt>
      <trkpt lat="45.64014" lon="4.6844">
        <ele>386.2</ele>
        <time>2020-01-14T15:00:21Z</time>
      </trkpt>
      <trkpt lat="45.64006" lon="4.68444">
        <ele>386</ele>
        <time>2020-01-14T15:00:32Z</time>
      </trkpt>
      <trkpt lat="45.63995" lon="4.68446">
        <ele>385.8</ele>
        <time>2020-01-14T15:00:42Z</time>
      </trkpt>
      <trkpt lat="45.63988" lon="4.68446">
        <ele>385.5</ele>
        <time>2020-01-14T15:00:49Z</time>
      </trkpt>
      <trkpt lat="45.63985" lon="4.68449">
        <ele>385.3</ele>
        <time>2020-01-14T15:00:53Z</time>
      </trkpt>
      <trkpt lat="45.63974" lon="4.68465">
        <ele>384.3</ele>
        <time>2020-01-14T15:01:09Z</time>
      </trkpt>
      <trkpt lat="45.63963" lon="4.68477">
        <ele>383.8</ele>
        <time>2020-01-14T15:01:24Z</time>
      </trkpt>
      <trkpt lat="45.63962" lon="4.68493">
        <ele>383.3</ele>
        <time>2020-01-14T15:01:37Z</time>
      </trkpt>
      <trkpt lat="45.63962" lon="4.68495">
        <ele>383.2</ele>
        <time>2020-01-14T15:01:38Z</time>
      </trkpt>
      <trkpt lat="45.63967" lon="4.68504">
        <ele>382.9</ele>
        <time>2020-01-14T15:01:49Z</time>
      </trkpt>
      <trkpt lat="45.63977" lon="4.68515">
        <ele>382.5</ele>
        <time>2020-01-14T15:02:03Z</time>
      </trkpt>
      <trkpt lat="45.63984" lon="4.68528">
        <ele>382</ele>
        <time>2020-01-14T15:02:17Z</time>
      </trkpt>
      <trkpt lat="45.63986" lon="4.68536">
        <ele>382</ele>
        <time>2020-01-14T15:02:33Z</time>
      </trkpt>
      <trkpt lat="45.63987" lon="4.68543">
        <ele>382</ele>
        <time>2020-01-14T15:02:47Z</time>
      </trkpt>
      <trkpt lat="45.63992" lon="4.68542">
        <ele>382</ele>
        <time>2020-01-14T15:02:59Z</time>
      </trkpt>
      <trkpt lat="45.63998" lon="4.68544">
        <ele>382</ele>
        <time>2020-01-14T15:03:14Z</time>
      </trkpt>
      <trkpt lat="45.64001" lon="4.6855">
        <ele>382</ele>
        <time>2020-01-14T15:03:28Z</time>
      </trkpt>
      <trkpt lat="45.64001" lon="4.68552">
        <ele>382</ele>
        <time>2020-01-14T15:03:42Z</time>
      </trkpt>
      <trkpt lat="45.64002" lon="4.68552">
        <ele>382</ele>
        <time>2020-01-14T15:03:59Z</time>
      </trkpt>
      <trkpt lat="45.64004" lon="4.68562">
        <ele>381.8</ele>
        <time>2020-01-14T15:04:11Z</time>
      </trkpt>
      <trkpt lat="45.64004" lon="4.68582">
        <ele>381.2</ele>
        <time>2020-01-14T15:04:25Z</time>
      </trkpt>
      <trkpt lat="45.64003" lon="4.68602">
        <ele>380.5</ele>
        <time>2020-01-14T15:04:39Z</time>
      </trkpt>
      <trkpt lat="45.64" lon="4.68612">
        <ele>380</ele>
        <time>2020-01-14T15:04:47Z</time>
      </trkpt>
      <trkpt lat="45.6399" lon="4.68631">
        <ele>379.7</ele>
        <time>2020-01-14T15:05:02Z</time>
      </trkpt>
      <trkpt lat="45.63982" lon="4.68646">
        <ele>379.3</ele>
        <time>2020-01-14T15:05:15Z</time>
      </trkpt>
      <trkpt lat="45.6398" lon="4.68671">
        <ele>379</ele>
        <time>2020-01-14T15:05:33Z</time>
      </trkpt>
      <trkpt lat="45.63981" lon="4.68696">
        <ele>379</ele>
        <time>2020-01-14T15:05:50Z</time>
      </trkpt>
      <trkpt lat="45.63982" lon="4.68719">
        <ele>378.4</ele>
        <time>2020-01-14T15:06:06Z</time>
      </trkpt>
      <trkpt lat="45.63983" lon="4.68734">
        <ele>378.4</ele>
        <time>2020-01-14T15:06:17Z</time>
      </trkpt>
      <trkpt lat="45.63986" lon="4.68756">
        <ele>378.5</ele>
        <time>2020-01-14T15:06:34Z</time>
      </trkpt>
      <trkpt lat="45.63991" lon="4.68775">
        <ele>378.7</ele>
        <time>2020-01-14T15:06:49Z</time>
      </trkpt>
      <trkpt lat="45.63992" lon="4.68776">
        <ele>378.7</ele>
        <time>2020-01-14T15:06:50Z</time>
      </trkpt>
      <trkpt lat="45.64" lon="4.68787">
        <ele>379</ele>
        <time>2020-01-14T15:07:01Z</time>
      </trkpt>
      <trkpt lat="45.64005" lon="4.68802">
        <ele>379.4</ele>
        <time>2020-01-14T15:07:13Z</time>
      </trkpt>
      <trkpt lat="45.64007" lon="4.68823">
        <ele>380</ele>
        <time>2020-01-14T15:07:28Z</time>
      </trkpt>
      <trkpt lat="45.64008" lon="4.68833">
        <ele>380.3</ele>
        <time>2020-01-14T15:07:34Z</time>
      </trkpt>
      <trkpt lat="45.64009" lon="4.68836">
        <ele>380.4</ele>
        <time>2020-01-14T15:07:37Z</time>
      </trkpt>
      <trkpt lat="45.64011" lon="4.68858">
        <ele>380.9</ele>
        <time>2020-01-14T15:07:52Z</time>
      </trkpt>
      <trkpt lat="45.64013" lon="4.68875">
        <ele>381.3</ele>
        <time>2020-01-14T15:08:05Z</time>
      </trkpt>
      <trkpt lat="45.64016" lon="4.68893">
        <ele>381.6</ele>
        <time>2020-01-14T15:08:19Z</time>
      </trkpt>
      <trkpt lat="45.64017" lon="4.68913">
        <ele>382.3</ele>
        <time>2020-01-14T15:08:33Z</time>
      </trkpt>
      <trkpt lat="45.6402" lon="4.68935">
        <ele>382.8</ele>
        <time>2020-01-14T15:08:49Z</time>
      </trkpt>
      <trkpt lat="45.6402" lon="4.68937">
        <ele>382.8</ele>
        <time>2020-01-14T15:08:51Z</time>
      </trkpt>
      <trkpt lat="45.64023" lon="4.68957">
        <ele>383.9</ele>
        <time>2020-01-14T15:09:06Z</time>
      </trkpt>
      <trkpt lat="45.64028" lon="4.68973">
        <ele>385</ele>
        <time>2020-01-14T15:09:21Z</time>
      </trkpt>
      <trkpt lat="45.64034" lon="4.68991">
        <ele>385.5</ele>
        <time>2020-01-14T15:09:34Z</time>
      </trkpt>
      <trkpt lat="45.64034" lon="4.68994">
        <ele>385.6</ele>
        <time>2020-01-14T15:09:36Z</time>
      </trkpt>
      <trkpt lat="45.64036" lon="4.69007">
        <ele>386.1</ele>
        <time>2020-01-14T15:09:45Z</time>
      </trkpt>
      <trkpt lat="45.64039" lon="4.69028">
        <ele>387.2</ele>
        <time>2020-01-14T15:10:00Z</time>
      </trkpt>
      <trkpt lat="45.64046" lon="4.69046">
        <ele>387.8</ele>
        <time>2020-01-14T15:10:13Z</time>
      </trkpt>
      <trkpt lat="45.64055" lon="4.69063">
        <ele>388.6</ele>
        <time>2020-01-14T15:10:26Z</time>
      </trkpt>
      <trkpt lat="45.64064" lon="4.69077">
        <ele>389.5</ele>
        <time>2020-01-14T15:10:40Z</time>
      </trkpt>
      <trkpt lat="45.64074" lon="4.69088">
        <ele>390.1</ele>
        <time>2020-01-14T15:10:53Z</time>
      </trkpt>
      <trkpt lat="45.64079" lon="4.69096">
        <ele>390.1</ele>
        <time>2020-01-14T15:11:02Z</time>
      </trkpt>
      <trkpt lat="45.64081" lon="4.69115">
        <ele>390.1</ele>
        <time>2020-01-14T15:11:19Z</time>
      </trkpt>
      <trkpt lat="45.6408" lon="4.69122">
        <ele>390.1</ele>
        <time>2020-01-14T15:11:30Z</time>
      </trkpt>
      <trkpt lat="45.6408" lon="4.69121">
        <ele>390.1</ele>
        <time>2020-01-14T15:11:33Z</time>
      </trkpt>
      <trkpt lat="45.6408" lon="4.69121">
        <ele>390.1</ele>
        <time>2020-01-14T15:11:38Z</time>
      </trkpt>
      <trkpt lat="45.64081" lon="4.69122">
        <ele>390.1</ele>
        <time>2020-01-14T15:11:56Z</time>
      </trkpt>
      <trkpt lat="45.64081" lon="4.69124">
        <ele>390.1</ele>
        <time>2020-01-14T15:12:12Z</time>
      </trkpt>
      <trkpt lat="45.64082" lon="4.69127">
        <ele>390</ele>
        <time>2020-01-14T15:12:29Z</time>
      </trkpt>
    </trkseg>
  </trk>
</gpx>